Time,TemperatureF,DewpointF,PressureIn,WindDirection,WindDirectionDegrees,WindSpeedMPH,WindSpeedGustMPH,Humidity,HourlyPrecipIn,Conditions,Clouds,dailyrainin,SoftwareType,DateUTC
2013-07-05 00:01:00,75.6,55.1,30.21,SSW,202,1.1,1.1,49,0.00,,,0.00,VWS V14.01,2013-07-05 04:01:00,
2013-07-05 00:06:00,75.4,54.9,30.21,SW,225,2.2,2.5,49,0.00,,,0.00,VWS V14.01,2013-07-05 04:06:00,
2013-07-05 00:11:00,75.2,54.8,30.21,SSW,202,0.0,0.0,49,0.00,,,0.00,VWS V14.01,2013-07-05 04:11:00,
2013-07-05 00:16:00,75.2,55.3,30.21,WSW,248,3.4,3.4,50,0.00,,,0.00,VWS V14.01,2013-07-05 04:16:00,
2013-07-05 00:21:00,75.0,55.1,30.21,South,180,0.0,1.3,50,0.00,,,0.00,VWS V14.01,2013-07-05 04:21:00,
2013-07-05 00:22:00,75.0,55.1,30.21,South,180,0.0,0.0,50,0.00,,,0.00,VWS V14.01,2013-07-05 04:22:00,
2013-07-05 00:26:00,75.0,55.1,30.21,SSW,202,0.9,1.3,50,0.00,,,0.00,VWS V14.01,2013-07-05 04:26:00,
2013-07-05 00:27:00,75.0,55.1,30.21,SSW,202,0.0,0.9,50,0.00,,,0.00,VWS V14.01,2013-07-05 04:27:00,
2013-07-05 00:31:00,74.8,55.0,30.21,South,180,1.1,1.1,50,0.00,,,0.00,VWS V14.01,2013-07-05 04:31:00,
2013-07-05 00:32:00,74.8,55.0,30.21,South,180,1.1,1.1,50,0.00,,,0.00,VWS V14.01,2013-07-05 04:32:00,
2013-07-05 00:36:00,74.8,55.5,30.21,South,180,1.3,1.3,51,0.00,,,0.00,VWS V14.01,2013-07-05 04:36:00,
2013-07-05 00:37:00,74.8,55.5,30.21,South,180,1.3,1.3,51,0.00,,,0.00,VWS V14.01,2013-07-05 04:37:00,
2013-07-05 00:41:00,74.7,55.3,30.21,SSW,202,0.0,0.0,51,0.00,,,0.00,VWS V14.01,2013-07-05 04:41:00,
2013-07-05 00:42:00,74.7,55.3,30.21,SSW,202,0.0,0.0,51,0.00,,,0.00,VWS V14.01,2013-07-05 04:42:00,
2013-07-05 00:46:00,74.7,55.3,30.21,SSW,202,0.0,0.9,51,0.00,,,0.00,VWS V14.01,2013-07-05 04:46:00,
2013-07-05 00:47:00,74.7,55.3,30.21,SSW,202,0.0,0.9,51,0.00,,,0.00,VWS V14.01,2013-07-05 04:47:00,
2013-07-05 00:51:00,74.5,55.2,30.21,SW,225,1.6,1.6,51,0.00,,,0.00,VWS V14.01,2013-07-05 04:51:00,
2013-07-05 00:52:00,74.5,55.2,30.21,SW,225,1.6,1.6,51,0.00,,,0.00,VWS V14.01,2013-07-05 04:52:00,
2013-07-05 00:57:00,74.5,55.7,30.21,SW,225,0.0,0.0,52,0.00,,,0.00,VWS V14.01,2013-07-05 04:57:00,
2013-07-05 00:58:00,74.5,55.7,30.21,SSW,202,1.3,1.3,52,0.00,,,0.00,VWS V14.01,2013-07-05 04:58:00,
2013-07-05 01:02:00,74.3,55.0,30.21,SW,225,0.9,0.9,51,0.00,,,0.00,VWS V14.01,2013-07-05 05:02:00,
2013-07-05 01:03:00,74.3,55.0,30.21,SW,225,0.9,0.9,51,0.00,,,0.00,VWS V14.01,2013-07-05 05:03:00,
2013-07-05 01:07:00,74.1,55.4,30.21,South,180,2.0,2.0,52,0.00,,,0.00,VWS V14.01,2013-07-05 05:07:00,
2013-07-05 01:08:00,74.1,55.4,30.21,SSW,202,1.3,2.0,52,0.00,,,0.00,VWS V14.01,2013-07-05 05:08:00,
2013-07-05 01:12:00,74.1,55.4,30.21,SSE,158,2.5,2.5,52,0.00,,,0.00,VWS V14.01,2013-07-05 05:12:00,
2013-07-05 01:13:00,74.1,55.4,30.21,SW,225,0.0,0.0,52,0.00,,,0.00,VWS V14.01,2013-07-05 05:13:00,
2013-07-05 01:17:00,74.1,55.9,30.21,West,270,0.0,2.0,53,0.00,,,0.00,VWS V14.01,2013-07-05 05:17:00,
2013-07-05 01:18:00,74.1,55.9,30.21,SSW,202,1.6,1.6,53,0.00,,,0.00,VWS V14.01,2013-07-05 05:18:00,
2013-07-05 01:22:00,73.9,55.8,30.21,South,180,1.1,1.3,53,0.00,,,0.00,VWS V14.01,2013-07-05 05:22:00,
2013-07-05 01:23:00,73.9,55.8,30.21,SW,225,0.0,1.1,53,0.00,,,0.00,VWS V14.01,2013-07-05 05:23:00,
2013-07-05 01:27:00,73.9,55.8,30.21,SSW,202,2.5,2.5,53,0.00,,,0.00,VWS V14.01,2013-07-05 05:27:00,
2013-07-05 01:28:00,73.9,55.8,30.21,SSW,202,2.5,2.5,53,0.00,,,0.00,VWS V14.01,2013-07-05 05:28:00,
2013-07-05 01:32:00,73.9,56.3,30.21,South,180,0.0,0.0,54,0.00,,,0.00,VWS V14.01,2013-07-05 05:32:00,
2013-07-05 01:33:00,73.9,56.3,30.21,South,180,2.2,2.2,54,0.00,,,0.00,VWS V14.01,2013-07-05 05:33:00,
2013-07-05 01:34:00,73.8,55.6,30.21,West,270,2.7,2.7,53,0.00,,,0.00,VWS V14.01,2013-07-05 05:34:00,
2013-07-05 01:37:00,73.8,56.1,30.21,South,180,1.3,1.3,54,0.00,,,0.00,VWS V14.01,2013-07-05 05:37:00,
2013-07-05 01:38:00,73.8,56.1,30.21,SE,135,1.6,1.6,54,0.00,,,0.00,VWS V14.01,2013-07-05 05:38:00,
2013-07-05 01:39:00,73.8,56.1,30.21,SE,135,1.6,1.6,54,0.00,,,0.00,VWS V14.01,2013-07-05 05:39:00,
2013-07-05 01:42:00,73.8,56.1,30.21,SSW,202,0.0,0.0,54,0.00,,,0.00,VWS V14.01,2013-07-05 05:42:00,
2013-07-05 01:43:00,73.8,56.1,30.21,SW,225,2.9,2.9,54,0.00,,,0.00,VWS V14.01,2013-07-05 05:43:00,
2013-07-05 01:44:00,73.8,56.1,30.21,SW,225,2.9,2.9,54,0.00,,,0.00,VWS V14.01,2013-07-05 05:44:00,
2013-07-05 01:47:00,73.6,55.9,30.21,NE,45,0.0,0.0,54,0.00,,,0.00,VWS V14.01,2013-07-05 05:47:00,
2013-07-05 01:48:00,73.6,55.9,30.21,SSW,202,0.0,0.0,54,0.00,,,0.00,VWS V14.01,2013-07-05 05:48:00,
2013-07-05 01:49:00,73.6,55.9,30.21,SSW,202,0.0,0.0,54,0.00,,,0.00,VWS V14.01,2013-07-05 05:49:00,
2013-07-05 01:53:00,73.6,55.9,30.21,SSW,202,1.1,1.1,54,0.00,,,0.00,VWS V14.01,2013-07-05 05:53:00,
2013-07-05 01:54:00,73.6,56.4,30.21,SW,225,1.1,1.1,55,0.00,,,0.00,VWS V14.01,2013-07-05 05:54:00,
2013-07-05 01:58:00,73.6,56.4,30.21,SSW,202,0.9,0.9,55,0.00,,,0.00,VWS V14.01,2013-07-05 05:58:00,
2013-07-05 01:59:00,73.6,56.4,30.21,SW,225,2.0,2.0,55,0.00,,,0.00,VWS V14.01,2013-07-05 05:59:00,
2013-07-05 02:03:00,73.4,55.8,30.21,SW,225,0.0,1.3,54,0.00,,,0.00,VWS V14.01,2013-07-05 06:03:00,
2013-07-05 02:04:00,73.4,56.3,30.21,South,180,2.5,2.5,55,0.00,,,0.00,VWS V14.01,2013-07-05 06:04:00,
2013-07-05 02:05:00,73.4,56.3,30.21,South,180,2.5,2.5,55,0.00,,,0.00,VWS V14.01,2013-07-05 06:05:00,
2013-07-05 02:08:00,73.4,56.3,30.21,NW,315,0.0,0.0,55,0.00,,,0.00,VWS V14.01,2013-07-05 06:08:00,
2013-07-05 02:09:00,73.6,56.4,30.21,NW,315,0.0,0.0,55,0.00,,,0.00,VWS V14.01,2013-07-05 06:09:00,
2013-07-05 02:10:00,73.6,56.4,30.21,NW,315,0.0,0.0,55,0.00,,,0.00,VWS V14.01,2013-07-05 06:10:00,
2013-07-05 02:13:00,73.4,56.8,30.21,West,270,0.0,0.0,56,0.00,,,0.00,VWS V14.01,2013-07-05 06:13:00,
2013-07-05 02:14:00,73.4,56.8,30.21,SW,225,1.3,1.3,56,0.00,,,0.00,VWS V14.01,2013-07-05 06:14:00,
2013-07-05 02:15:00,73.4,56.3,30.21,SSW,202,0.0,1.3,55,0.00,,,0.00,VWS V14.01,2013-07-05 06:15:00,
2013-07-05 02:18:00,73.4,56.8,30.21,ENE,68,0.0,0.0,56,0.00,,,0.00,VWS V14.01,2013-07-05 06:18:00,
2013-07-05 02:19:00,73.4,56.8,30.21,ENE,68,0.0,0.0,56,0.00,,,0.00,VWS V14.01,2013-07-05 06:19:00,
2013-07-05 02:20:00,73.4,56.8,30.21,South,180,1.3,1.3,56,0.00,,,0.00,VWS V14.01,2013-07-05 06:20:00,
2013-07-05 02:23:00,73.2,56.6,30.21,South,180,0.0,0.0,56,0.00,,,0.00,VWS V14.01,2013-07-05 06:23:00,
2013-07-05 02:24:00,73.2,57.1,30.21,South,180,0.0,0.0,57,0.00,,,0.00,VWS V14.01,2013-07-05 06:24:00,
2013-07-05 02:25:00,73.2,57.1,30.21,SE,135,0.0,0.0,57,0.00,,,0.00,VWS V14.01,2013-07-05 06:25:00,
2013-07-05 02:28:00,73.2,56.6,30.21,South,180,0.0,0.0,56,0.00,,,0.00,VWS V14.01,2013-07-05 06:28:00,
2013-07-05 02:29:00,73.2,57.1,30.21,South,180,0.0,0.0,57,0.00,,,0.00,VWS V14.01,2013-07-05 06:29:00,
2013-07-05 02:30:00,73.2,57.1,30.21,South,180,0.0,0.0,57,0.00,,,0.00,VWS V14.01,2013-07-05 06:30:00,
2013-07-05 02:34:00,73.0,56.4,30.21,South,180,0.0,1.6,56,0.00,,,0.00,VWS V14.01,2013-07-05 06:34:00,
2013-07-05 02:35:00,73.0,56.9,30.21,South,180,0.0,0.0,57,0.00,,,0.00,VWS V14.01,2013-07-05 06:35:00,
2013-07-05 02:39:00,73.0,56.9,30.21,South,180,0.0,0.0,57,0.00,,,0.00,VWS V14.01,2013-07-05 06:39:00,
2013-07-05 02:40:00,73.0,56.9,30.21,South,180,0.0,0.0,57,0.00,,,0.00,VWS V14.01,2013-07-05 06:40:00,
2013-07-05 02:41:00,73.0,56.9,30.21,South,180,0.0,0.0,57,0.00,,,0.00,VWS V14.01,2013-07-05 06:41:00,
2013-07-05 02:44:00,72.9,56.8,30.21,South,180,0.0,0.0,57,0.00,,,0.00,VWS V14.01,2013-07-05 06:44:00,
2013-07-05 02:45:00,72.9,57.2,30.21,South,180,0.0,0.0,58,0.00,,,0.00,VWS V14.01,2013-07-05 06:45:00,
2013-07-05 02:46:00,72.9,57.2,30.21,South,180,0.0,0.0,58,0.00,,,0.00,VWS V14.01,2013-07-05 06:46:00,
2013-07-05 02:49:00,72.9,56.8,30.21,South,180,0.0,0.0,57,0.00,,,0.00,VWS V14.01,2013-07-05 06:49:00,
2013-07-05 02:50:00,72.9,56.8,30.21,South,180,1.6,1.6,57,0.00,,,0.00,VWS V14.01,2013-07-05 06:50:00,
2013-07-05 02:51:00,72.9,57.2,30.21,South,180,0.0,0.0,58,0.00,,,0.00,VWS V14.01,2013-07-05 06:51:00,
2013-07-05 02:54:00,72.7,57.1,30.21,SSW,202,1.6,1.6,58,0.00,,,0.00,VWS V14.01,2013-07-05 06:54:00,
2013-07-05 02:55:00,72.7,57.1,30.21,SSW,202,0.0,1.6,58,0.00,,,0.00,VWS V14.01,2013-07-05 06:55:00,
2013-07-05 02:56:00,72.7,57.1,30.21,SSW,202,0.0,0.0,58,0.00,,,0.00,VWS V14.01,2013-07-05 06:56:00,
2013-07-05 02:59:00,72.7,57.1,30.18,SSW,202,0.0,0.0,58,0.00,,,0.00,VWS V14.01,2013-07-05 06:59:00,
2013-07-05 03:00:00,72.7,57.1,30.18,SSW,202,0.0,0.0,58,0.00,,,0.00,VWS V14.01,2013-07-05 07:00:00,
2013-07-05 03:01:00,72.7,57.1,30.18,SSW,202,1.3,1.3,58,0.00,,,0.00,VWS V14.01,2013-07-05 07:01:00,
2013-07-05 03:04:00,72.7,57.1,30.18,South,180,2.0,2.0,58,0.00,,,0.00,VWS V14.01,2013-07-05 07:04:00,
2013-07-05 03:05:00,72.7,57.1,30.18,South,180,2.0,2.0,58,0.00,,,0.00,VWS V14.01,2013-07-05 07:05:00,
2013-07-05 03:06:00,72.7,57.1,30.18,West,270,1.6,2.0,58,0.00,,,0.00,VWS V14.01,2013-07-05 07:06:00,
2013-07-05 03:07:00,72.7,57.1,30.18,South,180,0.9,1.6,58,0.00,,,0.00,VWS V14.01,2013-07-05 07:07:00,
2013-07-05 03:09:00,72.7,57.5,30.18,South,180,0.0,0.0,59,0.00,,,0.00,VWS V14.01,2013-07-05 07:09:00,
2013-07-05 03:10:00,72.7,57.5,30.18,SW,225,0.0,0.0,59,0.00,,,0.00,VWS V14.01,2013-07-05 07:10:00,
2013-07-05 03:11:00,72.7,57.5,30.18,SW,225,0.0,0.0,59,0.00,,,0.00,VWS V14.01,2013-07-05 07:11:00,
2013-07-05 03:12:00,72.7,57.5,30.18,SW,225,0.0,0.0,59,0.00,,,0.00,VWS V14.01,2013-07-05 07:12:00,
2013-07-05 03:14:00,72.7,57.5,30.18,SSW,202,0.0,1.1,59,0.00,,,0.00,VWS V14.01,2013-07-05 07:14:00,
2013-07-05 03:15:00,72.7,57.5,30.18,SSW,202,0.0,1.1,59,0.00,,,0.00,VWS V14.01,2013-07-05 07:15:00,
2013-07-05 03:16:00,72.7,57.1,30.18,SSW,202,0.0,0.0,58,0.00,,,0.00,VWS V14.01,2013-07-05 07:16:00,
2013-07-05 03:17:00,72.7,57.1,30.18,South,180,0.0,2.5,58,0.00,,,0.00,VWS V14.01,2013-07-05 07:17:00,
2013-07-05 03:19:00,72.7,57.5,30.18,SSW,202,0.0,0.0,59,0.00,,,0.00,VWS V14.01,2013-07-05 07:19:00,
2013-07-05 03:20:00,72.7,57.5,30.18,SSW,202,2.0,2.0,59,0.00,,,0.00,VWS V14.01,2013-07-05 07:20:00,
2013-07-05 03:21:00,72.7,57.5,30.18,SSE,158,1.1,1.1,59,0.00,,,0.00,VWS V14.01,2013-07-05 07:21:00,
2013-07-05 03:22:00,72.7,57.5,30.18,SE,135,1.1,1.1,59,0.00,,,0.00,VWS V14.01,2013-07-05 07:22:00,
2013-07-05 03:23:00,72.7,57.5,30.18,SSW,202,0.0,1.1,59,0.00,,,0.00,VWS V14.01,2013-07-05 07:23:00,
2013-07-05 03:25:00,72.7,57.5,30.18,SSW,202,1.6,1.6,59,0.00,,,0.00,VWS V14.01,2013-07-05 07:25:00,
2013-07-05 03:26:00,72.5,57.4,30.18,WSW,248,3.4,3.4,59,0.00,,,0.00,VWS V14.01,2013-07-05 07:26:00,
2013-07-05 03:27:00,72.5,57.4,30.18,WSW,248,3.4,3.4,59,0.00,,,0.00,VWS V14.01,2013-07-05 07:27:00,
2013-07-05 03:28:00,72.5,57.4,30.18,SW,225,1.6,1.6,59,0.00,,,0.00,VWS V14.01,2013-07-05 07:28:00,
2013-07-05 03:30:00,72.5,57.4,30.18,SSW,202,1.3,1.3,59,0.00,,,0.00,VWS V14.01,2013-07-05 07:30:00,
2013-07-05 03:31:00,72.5,57.4,30.18,SSW,202,1.1,1.3,59,0.00,,,0.00,VWS V14.01,2013-07-05 07:31:00,
2013-07-05 03:32:00,72.5,57.4,30.18,SSW,202,0.0,1.1,59,0.00,,,0.00,VWS V14.01,2013-07-05 07:32:00,
2013-07-05 03:33:00,72.5,57.8,30.18,South,180,0.9,0.9,60,0.00,,,0.00,VWS V14.01,2013-07-05 07:33:00,
2013-07-05 03:35:00,72.5,57.8,30.18,SSW,202,1.6,2.2,60,0.00,,,0.00,VWS V14.01,2013-07-05 07:35:00,
2013-07-05 03:36:00,72.5,57.8,30.18,SSW,202,0.0,1.6,60,0.00,,,0.00,VWS V14.01,2013-07-05 07:36:00,
2013-07-05 03:37:00,72.5,57.8,30.18,SSW,202,0.0,1.6,60,0.00,,,0.00,VWS V14.01,2013-07-05 07:37:00,
2013-07-05 03:38:00,72.5,57.8,30.18,SSW,202,0.0,0.0,60,0.00,,,0.00,VWS V14.01,2013-07-05 07:38:00,
2013-07-05 03:40:00,72.5,57.8,30.18,SSW,202,0.0,0.0,60,0.00,,,0.00,VWS V14.01,2013-07-05 07:40:00,
2013-07-05 03:41:00,72.5,57.8,30.18,SSW,202,0.0,0.0,60,0.00,,,0.00,VWS V14.01,2013-07-05 07:41:00,
2013-07-05 03:42:00,72.3,57.7,30.18,SSW,202,0.0,0.0,60,0.00,,,0.00,VWS V14.01,2013-07-05 07:42:00,
2013-07-05 03:43:00,72.3,57.7,30.18,SSW,202,0.0,0.0,60,0.00,,,0.00,VWS V14.01,2013-07-05 07:43:00,
2013-07-05 03:45:00,72.3,57.7,30.18,SSW,202,0.0,0.0,60,0.00,,,0.00,VWS V14.01,2013-07-05 07:45:00,
2013-07-05 03:46:00,72.3,57.7,30.18,SW,225,1.6,1.6,60,0.00,,,0.00,VWS V14.01,2013-07-05 07:46:00,
2013-07-05 03:47:00,72.3,57.7,30.18,South,180,2.0,2.0,60,0.00,,,0.00,VWS V14.01,2013-07-05 07:47:00,
2013-07-05 03:48:00,72.3,57.7,30.18,South,180,2.0,2.0,60,0.00,,,0.00,VWS V14.01,2013-07-05 07:48:00,
2013-07-05 03:50:00,72.3,57.7,30.18,South,180,1.3,1.3,60,0.00,,,0.00,VWS V14.01,2013-07-05 07:50:00,
2013-07-05 03:51:00,72.3,58.1,30.18,South,180,1.6,1.6,61,0.00,,,0.00,VWS V14.01,2013-07-05 07:51:00,
2013-07-05 03:53:00,72.3,58.1,30.18,South,180,0.9,0.9,61,0.00,,,0.00,VWS V14.01,2013-07-05 07:53:00,
2013-07-05 03:55:00,72.3,58.1,30.18,SE,135,2.2,2.2,61,0.00,,,0.00,VWS V14.01,2013-07-05 07:55:00,
2013-07-05 03:56:00,72.1,58.0,30.18,SE,135,2.2,2.2,61,0.00,,,0.00,VWS V14.01,2013-07-05 07:56:00,
2013-07-05 03:58:00,72.3,58.1,30.18,SW,225,0.0,0.0,61,0.00,,,0.00,VWS V14.01,2013-07-05 07:58:00,
2013-07-05 04:00:00,72.1,58.0,30.18,NW,315,0.0,0.0,61,0.00,,,0.00,VWS V14.01,2013-07-05 08:00:00,
2013-07-05 04:02:00,72.1,57.5,30.18,SSW,202,0.9,0.9,60,0.00,,,0.00,VWS V14.01,2013-07-05 08:02:00,
2013-07-05 04:03:00,72.1,57.5,30.18,SSW,202,1.1,1.1,60,0.00,,,0.00,VWS V14.01,2013-07-05 08:03:00,
2013-07-05 04:05:00,72.1,58.0,30.18,SSW,202,0.0,0.0,61,0.00,,,0.00,VWS V14.01,2013-07-05 08:05:00,
2013-07-05 04:07:00,72.1,58.0,30.18,SSW,202,0.0,0.0,61,0.00,,,0.00,VWS V14.01,2013-07-05 08:07:00,
2013-07-05 04:08:00,72.1,58.0,30.18,South,180,0.0,0.0,61,0.00,,,0.00,VWS V14.01,2013-07-05 08:08:00,
2013-07-05 04:11:00,72.0,57.8,30.18,SSW,202,0.0,0.0,61,0.00,,,0.00,VWS V14.01,2013-07-05 08:11:00,
2013-07-05 04:12:00,72.0,58.2,30.18,SSW,202,0.0,0.0,62,0.00,,,0.00,VWS V14.01,2013-07-05 08:12:00,
2013-07-05 04:13:00,72.0,58.2,30.18,SSW,202,0.0,0.0,62,0.00,,,0.00,VWS V14.01,2013-07-05 08:13:00,
2013-07-05 04:14:00,72.0,58.2,30.18,SSW,202,0.0,0.0,62,0.00,,,0.00,VWS V14.01,2013-07-05 08:14:00,
2013-07-05 04:16:00,72.0,58.2,30.18,SSW,202,0.0,0.0,62,0.00,,,0.00,VWS V14.01,2013-07-05 08:16:00,
2013-07-05 04:17:00,72.0,58.2,30.18,SSW,202,0.0,0.0,62,0.00,,,0.00,VWS V14.01,2013-07-05 08:17:00,
2013-07-05 04:18:00,72.0,58.2,30.18,SSW,202,0.0,0.0,62,0.00,,,0.00,VWS V14.01,2013-07-05 08:18:00,
2013-07-05 04:19:00,72.0,58.2,30.18,North,0,0.0,0.0,62,0.00,,,0.00,VWS V14.01,2013-07-05 08:19:00,
2013-07-05 04:21:00,72.0,58.2,30.18,SW,225,1.6,1.6,62,0.00,,,0.00,VWS V14.01,2013-07-05 08:21:00,
2013-07-05 04:22:00,72.0,58.2,30.18,SSE,158,1.6,1.6,62,0.00,,,0.00,VWS V14.01,2013-07-05 08:22:00,
2013-07-05 04:23:00,72.0,58.2,30.18,SSW,202,0.9,1.6,62,0.00,,,0.00,VWS V14.01,2013-07-05 08:23:00,
2013-07-05 04:24:00,72.0,58.2,30.18,SSW,202,0.9,1.6,62,0.00,,,0.00,VWS V14.01,2013-07-05 08:24:00,
2013-07-05 04:26:00,71.8,58.1,30.18,SSW,202,0.0,1.3,62,0.00,,,0.00,VWS V14.01,2013-07-05 08:26:00,
2013-07-05 04:27:00,71.8,58.1,30.18,SSW,202,0.0,0.0,62,0.00,,,0.00,VWS V14.01,2013-07-05 08:27:00,
2013-07-05 04:28:00,71.8,58.1,30.18,SSW,202,0.0,0.0,62,0.00,,,0.00,VWS V14.01,2013-07-05 08:28:00,
2013-07-05 04:29:00,71.8,58.1,30.18,SSW,202,0.0,0.0,62,0.00,,,0.00,VWS V14.01,2013-07-05 08:29:00,
2013-07-05 04:31:00,71.8,58.1,30.21,SSW,202,1.1,1.1,62,0.00,,,0.00,VWS V14.01,2013-07-05 08:31:00,
2013-07-05 04:33:00,71.8,58.1,30.21,SSW,202,0.0,0.0,62,0.00,,,0.00,VWS V14.01,2013-07-05 08:33:00,
2013-07-05 04:34:00,71.8,58.1,30.21,SSW,202,0.0,0.0,62,0.00,,,0.00,VWS V14.01,2013-07-05 08:34:00,
2013-07-05 04:36:00,71.8,58.1,30.21,SSW,202,1.3,1.3,62,0.00,,,0.00,VWS V14.01,2013-07-05 08:36:00,
2013-07-05 04:38:00,71.8,58.1,30.21,SSW,202,1.6,1.6,62,0.00,,,0.00,VWS V14.01,2013-07-05 08:38:00,
2013-07-05 04:39:00,71.8,58.1,30.21,SSW,202,0.0,1.6,62,0.00,,,0.00,VWS V14.01,2013-07-05 08:39:00,
2013-07-05 04:42:00,71.6,58.3,30.21,SSW,202,0.9,0.9,63,0.00,,,0.00,VWS V14.01,2013-07-05 08:42:00,
2013-07-05 04:43:00,71.6,58.3,30.21,SSW,202,0.0,0.9,63,0.00,,,0.00,VWS V14.01,2013-07-05 08:43:00,
2013-07-05 04:44:00,71.6,58.3,30.21,SSW,202,0.0,0.0,63,0.00,,,0.00,VWS V14.01,2013-07-05 08:44:00,
2013-07-05 04:47:00,71.6,58.3,30.21,SSW,202,0.0,0.0,63,0.00,,,0.00,VWS V14.01,2013-07-05 08:47:00,
2013-07-05 04:48:00,71.6,58.3,30.21,SSW,202,0.0,0.0,63,0.00,,,0.00,VWS V14.01,2013-07-05 08:48:00,
2013-07-05 04:49:00,71.6,58.3,30.21,SSW,202,0.0,0.0,63,0.00,,,0.00,VWS V14.01,2013-07-05 08:49:00,
2013-07-05 04:52:00,71.6,58.3,30.21,SSW,202,0.0,0.0,63,0.00,,,0.00,VWS V14.01,2013-07-05 08:52:00,
2013-07-05 04:54:00,71.6,58.3,30.21,SSW,202,0.0,0.0,63,0.00,,,0.00,VWS V14.01,2013-07-05 08:54:00,
2013-07-05 04:55:00,71.6,58.3,30.21,SSW,202,0.0,0.0,63,0.00,,,0.00,VWS V14.01,2013-07-05 08:55:00,
2013-07-05 04:57:00,71.4,58.6,30.21,SSW,202,0.0,0.0,64,0.00,,,0.00,VWS V14.01,2013-07-05 08:57:00,
2013-07-05 04:59:00,71.4,58.6,30.21,SSW,202,0.0,0.0,64,0.00,,,0.00,VWS V14.01,2013-07-05 08:59:00,
2013-07-05 05:00:00,71.4,58.6,30.21,SSW,202,0.0,0.0,64,0.00,,,0.00,VWS V14.01,2013-07-05 09:00:00,
2013-07-05 05:02:00,71.4,58.6,30.21,SSW,202,0.0,0.0,64,0.00,,,0.00,VWS V14.01,2013-07-05 09:02:00,
2013-07-05 05:04:00,71.4,58.6,30.21,SSW,202,0.0,0.0,64,0.00,,,0.00,VWS V14.01,2013-07-05 09:04:00,
2013-07-05 05:05:00,71.4,58.6,30.21,SSW,202,0.0,0.0,64,0.00,,,0.00,VWS V14.01,2013-07-05 09:05:00,
2013-07-05 05:06:00,71.4,58.6,30.21,SSW,202,0.0,0.0,64,0.00,,,0.00,VWS V14.01,2013-07-05 09:06:00,
2013-07-05 05:08:00,71.4,58.6,30.21,SSW,202,0.0,0.0,64,0.00,,,0.00,VWS V14.01,2013-07-05 09:08:00,
2013-07-05 05:09:00,71.2,58.5,30.21,SSW,202,0.0,0.0,64,0.00,,,0.00,VWS V14.01,2013-07-05 09:09:00,
2013-07-05 05:10:00,71.4,58.6,30.21,SSW,202,0.0,0.0,64,0.00,,,0.00,VWS V14.01,2013-07-05 09:10:00,
2013-07-05 05:12:00,71.4,58.6,30.21,SSW,202,0.0,0.0,64,0.00,,,0.00,VWS V14.01,2013-07-05 09:12:00,
2013-07-05 05:13:00,71.4,58.6,30.21,SSW,202,0.0,0.0,64,0.00,,,0.00,VWS V14.01,2013-07-05 09:13:00,
2013-07-05 05:14:00,71.4,58.6,30.21,SSW,202,0.0,0.0,64,0.00,,,0.00,VWS V14.01,2013-07-05 09:14:00,
2013-07-05 05:15:00,71.4,58.6,30.21,SSW,202,0.0,0.0,64,0.00,,,0.00,VWS V14.01,2013-07-05 09:15:00,
2013-07-05 05:18:00,71.2,58.5,30.21,SSW,202,0.0,0.0,64,0.00,,,0.00,VWS V14.01,2013-07-05 09:18:00,
2013-07-05 05:20:00,71.2,58.5,30.21,SSW,202,0.0,0.0,64,0.00,,,0.00,VWS V14.01,2013-07-05 09:20:00,
2013-07-05 05:21:00,71.2,58.5,30.21,SSW,202,0.0,0.0,64,0.00,,,0.00,VWS V14.01,2013-07-05 09:21:00,
2013-07-05 05:23:00,71.2,58.9,30.21,SSW,202,0.0,0.0,65,0.00,,,0.00,VWS V14.01,2013-07-05 09:23:00,
2013-07-05 05:25:00,71.2,58.9,30.21,SSW,202,0.0,0.0,65,0.00,,,0.00,VWS V14.01,2013-07-05 09:25:00,
2013-07-05 05:26:00,71.2,58.9,30.21,SSW,202,0.0,0.0,65,0.00,,,0.00,VWS V14.01,2013-07-05 09:26:00,
2013-07-05 05:28:00,71.2,58.9,30.21,SSW,202,0.0,0.0,65,0.00,,,0.00,VWS V14.01,2013-07-05 09:28:00,
2013-07-05 05:30:00,71.2,58.9,30.21,SSW,202,0.0,0.0,65,0.00,,,0.00,VWS V14.01,2013-07-05 09:30:00,
2013-07-05 05:31:00,71.2,58.9,30.21,SSW,202,0.0,0.0,65,0.00,,,0.00,VWS V14.01,2013-07-05 09:31:00,
2013-07-05 05:33:00,71.2,58.9,30.21,SSW,202,0.0,0.0,65,0.00,,,0.00,VWS V14.01,2013-07-05 09:33:00,
2013-07-05 05:34:00,71.2,58.9,30.21,SSW,202,0.0,0.0,65,0.00,,,0.00,VWS V14.01,2013-07-05 09:34:00,
2013-07-05 05:35:00,71.2,58.9,30.21,SSW,202,0.0,0.0,65,0.00,,,0.00,VWS V14.01,2013-07-05 09:35:00,
2013-07-05 05:37:00,71.2,58.9,30.21,SSW,202,0.0,0.0,65,0.00,,,0.00,VWS V14.01,2013-07-05 09:37:00,
2013-07-05 05:38:00,71.2,58.9,30.21,SSW,202,0.0,0.0,65,0.00,,,0.00,VWS V14.01,2013-07-05 09:38:00,
2013-07-05 05:40:00,71.2,58.9,30.21,SSW,202,0.0,0.0,65,0.00,,,0.00,VWS V14.01,2013-07-05 09:40:00,
2013-07-05 05:41:00,71.2,58.9,30.21,SSW,202,0.0,0.0,65,0.00,,,0.00,VWS V14.01,2013-07-05 09:41:00,
2013-07-05 05:42:00,71.1,58.7,30.21,SSW,202,0.0,0.0,65,0.00,,,0.00,VWS V14.01,2013-07-05 09:42:00,
2013-07-05 05:43:00,71.2,58.9,30.21,SSW,202,0.0,0.0,65,0.00,,,0.00,VWS V14.01,2013-07-05 09:43:00,
2013-07-05 05:45:00,71.2,58.9,30.21,SSW,202,0.0,0.0,65,0.00,,,0.00,VWS V14.01,2013-07-05 09:45:00,
2013-07-05 05:46:00,71.2,58.9,30.21,SSW,202,0.0,0.0,65,0.00,,,0.00,VWS V14.01,2013-07-05 09:46:00,
2013-07-05 05:47:00,71.2,58.9,30.21,SSW,202,0.0,0.0,65,0.00,,,0.00,VWS V14.01,2013-07-05 09:47:00,
2013-07-05 05:49:00,71.2,58.9,30.21,SSW,202,0.0,0.0,65,0.00,,,0.00,VWS V14.01,2013-07-05 09:49:00,
2013-07-05 05:51:00,71.2,58.9,30.21,SSW,202,0.0,0.0,65,0.00,,,0.00,VWS V14.01,2013-07-05 09:51:00,
2013-07-05 05:52:00,71.2,58.9,30.21,SSW,202,0.0,0.0,65,0.00,,,0.00,VWS V14.01,2013-07-05 09:52:00,
2013-07-05 05:55:00,71.2,58.9,30.21,SSW,202,0.0,0.0,65,0.00,,,0.00,VWS V14.01,2013-07-05 09:55:00,
2013-07-05 05:56:00,71.2,58.9,30.21,SSW,202,0.0,0.0,65,0.00,,,0.00,VWS V14.01,2013-07-05 09:56:00,
2013-07-05 05:58:00,71.2,58.9,30.21,SSW,202,0.0,0.0,65,0.00,,,0.00,VWS V14.01,2013-07-05 09:58:00,
2013-07-05 06:00:00,71.2,59.3,30.21,SSW,202,0.0,0.0,66,0.00,,,0.00,VWS V14.01,2013-07-05 10:00:00,
2013-07-05 06:01:00,71.2,59.3,30.21,SSW,202,0.0,0.0,66,0.00,,,0.00,VWS V14.01,2013-07-05 10:01:00,
2013-07-05 06:03:00,71.2,59.3,30.21,SSW,202,0.0,0.0,66,0.00,,,0.00,VWS V14.01,2013-07-05 10:03:00,
2013-07-05 06:05:00,71.4,59.5,30.21,SSW,202,0.0,0.0,66,0.00,,,0.00,VWS V14.01,2013-07-05 10:05:00,
2013-07-05 06:06:00,71.4,59.5,30.21,SSW,202,0.0,0.0,66,0.00,,,0.00,VWS V14.01,2013-07-05 10:06:00,
2013-07-05 06:08:00,71.4,59.5,30.21,SSW,202,0.0,0.0,66,0.00,,,0.00,VWS V14.01,2013-07-05 10:08:00,
2013-07-05 06:09:00,71.4,59.5,30.21,SSW,202,0.0,0.0,66,0.00,,,0.00,VWS V14.01,2013-07-05 10:09:00,
2013-07-05 06:10:00,71.6,59.7,30.21,SSW,202,0.9,0.9,66,0.00,,,0.00,VWS V14.01,2013-07-05 10:10:00,
2013-07-05 06:11:00,71.6,59.7,30.21,SSW,202,0.0,0.9,66,0.00,,,0.00,VWS V14.01,2013-07-05 10:11:00,
2013-07-05 06:13:00,72.0,60.0,30.21,SSW,202,0.0,0.0,66,0.00,,,0.00,VWS V14.01,2013-07-05 10:13:00,
2013-07-05 06:14:00,72.0,60.0,30.21,SSW,202,0.0,0.0,66,0.00,,,0.00,VWS V14.01,2013-07-05 10:14:00,
2013-07-05 06:16:00,72.0,60.0,30.21,SSW,202,0.0,0.0,66,0.00,,,0.00,VWS V14.01,2013-07-05 10:16:00,
2013-07-05 06:17:00,72.0,60.0,30.21,SSW,202,0.0,0.0,66,0.00,,,0.00,VWS V14.01,2013-07-05 10:17:00,
2013-07-05 06:19:00,72.1,60.2,30.21,SSW,202,1.3,1.3,66,0.00,,,0.00,VWS V14.01,2013-07-05 10:19:00,
2013-07-05 06:20:00,72.3,59.9,30.21,SSW,202,0.0,0.0,65,0.00,,,0.00,VWS V14.01,2013-07-05 10:20:00,
2013-07-05 06:22:00,72.3,59.9,30.21,SSW,202,0.0,0.0,65,0.00,,,0.00,VWS V14.01,2013-07-05 10:22:00,
2013-07-05 06:24:00,72.5,60.1,30.21,SSW,202,0.0,0.0,65,0.00,,,0.00,VWS V14.01,2013-07-05 10:24:00,
2013-07-05 06:26:00,72.7,60.2,30.21,South,180,1.6,1.6,65,0.00,,,0.00,VWS V14.01,2013-07-05 10:26:00,
2013-07-05 06:27:00,72.7,60.2,30.21,South,180,2.0,2.0,65,0.00,,,0.00,VWS V14.01,2013-07-05 10:27:00,
2013-07-05 06:29:00,72.9,60.4,30.21,South,180,0.0,0.0,65,0.00,,,0.00,VWS V14.01,2013-07-05 10:29:00,
2013-07-05 06:32:00,73.0,60.6,30.21,South,180,0.0,0.0,65,0.00,,,0.00,VWS V14.01,2013-07-05 10:32:00,
2013-07-05 06:34:00,73.0,60.6,30.21,SSW,202,1.6,1.6,65,0.00,,,0.00,VWS V14.01,2013-07-05 10:34:00,
2013-07-05 06:35:00,73.2,60.3,30.21,SSW,202,1.3,1.3,64,0.00,,,0.00,VWS V14.01,2013-07-05 10:35:00,
2013-07-05 06:37:00,73.2,60.3,30.21,SSW,202,0.0,0.9,64,0.00,,,0.00,VWS V14.01,2013-07-05 10:37:00,
2013-07-05 06:38:00,73.2,60.3,30.21,SSW,202,0.0,0.9,64,0.00,,,0.00,VWS V14.01,2013-07-05 10:38:00,
2013-07-05 06:40:00,73.2,60.3,30.21,SSW,202,0.0,0.0,64,0.00,,,0.00,VWS V14.01,2013-07-05 10:40:00,
2013-07-05 06:43:00,73.4,60.5,30.21,South,180,0.0,1.3,64,0.00,,,0.00,VWS V14.01,2013-07-05 10:43:00,
2013-07-05 06:45:00,73.6,60.7,30.21,South,180,1.1,1.6,64,0.00,,,0.00,VWS V14.01,2013-07-05 10:45:00,
2013-07-05 06:48:00,73.9,61.0,30.21,South,180,0.0,0.0,64,0.00,,,0.00,VWS V14.01,2013-07-05 10:48:00,
2013-07-05 06:49:00,73.9,61.0,30.21,South,180,0.0,0.0,64,0.00,,,0.00,VWS V14.01,2013-07-05 10:49:00,
2013-07-05 06:51:00,74.1,61.2,30.21,South,180,0.0,0.0,64,0.00,,,0.00,VWS V14.01,2013-07-05 10:51:00,
2013-07-05 06:53:00,74.1,60.7,30.21,SE,135,0.0,0.0,63,0.00,,,0.00,VWS V14.01,2013-07-05 10:53:00,
2013-07-05 06:55:00,74.1,60.7,30.21,SSW,202,0.0,0.0,63,0.00,,,0.00,VWS V14.01,2013-07-05 10:55:00,
2013-07-05 06:56:00,74.1,60.7,30.21,WNW,292,1.6,1.6,63,0.00,,,0.00,VWS V14.01,2013-07-05 10:56:00,
2013-07-05 06:58:00,74.3,60.9,30.21,SW,225,0.0,0.0,63,0.00,,,0.00,VWS V14.01,2013-07-05 10:58:00,
2013-07-05 07:00:00,74.3,60.9,30.21,SSW,202,3.1,3.1,63,0.00,,,0.00,VWS V14.01,2013-07-05 11:00:00,
2013-07-05 07:01:00,74.5,61.1,30.21,SW,225,1.1,3.1,63,0.00,,,0.00,VWS V14.01,2013-07-05 11:01:00,
2013-07-05 07:02:00,74.5,61.1,30.21,WSW,248,3.4,3.4,63,0.00,,,0.00,VWS V14.01,2013-07-05 11:02:00,
2013-07-05 07:04:00,74.5,61.1,30.21,SSW,202,0.0,0.0,63,0.00,,,0.00,VWS V14.01,2013-07-05 11:04:00,
2013-07-05 07:06:00,74.7,61.2,30.21,SSW,202,0.9,0.9,63,0.00,,,0.00,VWS V14.01,2013-07-05 11:06:00,
2013-07-05 07:07:00,74.7,61.2,30.21,SSW,202,0.0,0.9,63,0.00,,,0.00,VWS V14.01,2013-07-05 11:07:00,
2013-07-05 07:08:00,74.7,61.2,30.21,SSW,202,1.1,1.1,63,0.00,,,0.00,VWS V14.01,2013-07-05 11:08:00,
2013-07-05 07:09:00,74.8,61.4,30.21,South,180,1.3,1.3,63,0.00,,,0.00,VWS V14.01,2013-07-05 11:09:00,
2013-07-05 07:11:00,75.0,61.6,30.21,SW,225,3.6,3.6,63,0.00,,,0.00,VWS V14.01,2013-07-05 11:11:00,
2013-07-05 07:12:00,75.2,61.3,30.21,SSW,202,1.1,3.6,62,0.00,,,0.00,VWS V14.01,2013-07-05 11:12:00,
2013-07-05 07:14:00,75.6,61.6,30.21,ESE,112,2.5,2.5,62,0.00,,,0.00,VWS V14.01,2013-07-05 11:14:00,
2013-07-05 07:17:00,76.1,62.2,30.21,South,180,0.0,0.0,62,0.00,,,0.00,VWS V14.01,2013-07-05 11:17:00,
2013-07-05 07:18:00,77.0,63.0,30.21,SSE,158,0.0,0.0,62,0.00,,,0.00,VWS V14.01,2013-07-05 11:18:00,
2013-07-05 07:19:00,77.9,63.4,30.21,South,180,1.1,1.1,61,0.00,,,0.00,VWS V14.01,2013-07-05 11:19:00,
2013-07-05 07:22:00,78.6,63.6,30.21,South,180,0.0,1.6,60,0.00,,,0.00,VWS V14.01,2013-07-05 11:22:00,
2013-07-05 07:23:00,79.3,63.3,30.21,South,180,1.3,1.3,58,0.00,,,0.00,VWS V14.01,2013-07-05 11:23:00,
2013-07-05 07:24:00,80.1,63.0,30.21,South,180,1.1,1.1,56,0.00,,,0.00,VWS V14.01,2013-07-05 11:24:00,
2013-07-05 07:27:00,80.6,62.4,30.21,South,180,0.0,0.9,54,0.00,,,0.00,VWS V14.01,2013-07-05 11:27:00,
2013-07-05 07:29:00,81.5,62.7,30.21,South,180,3.1,3.1,53,0.00,,,0.00,VWS V14.01,2013-07-05 11:29:00,
2013-07-05 07:30:00,81.5,61.7,30.21,South,180,2.5,3.1,51,0.00,,,0.00,VWS V14.01,2013-07-05 11:30:00,
2013-07-05 07:32:00,81.7,61.8,30.21,SW,225,0.0,0.0,51,0.00,,,0.00,VWS V14.01,2013-07-05 11:32:00,
2013-07-05 07:35:00,82.4,61.3,30.21,NE,45,1.3,2.0,49,0.00,,,0.00,VWS V14.01,2013-07-05 11:35:00,
2013-07-05 07:37:00,83.3,61.6,30.21,SSW,202,2.9,2.9,48,0.00,,,0.00,VWS V14.01,2013-07-05 11:37:00,
2013-07-05 07:40:00,83.3,61.0,30.21,WSW,248,2.7,2.7,47,0.00,,,0.00,VWS V14.01,2013-07-05 11:40:00,
2013-07-05 07:41:00,83.3,61.0,30.21,South,180,5.4,5.4,47,0.00,,,0.00,VWS V14.01,2013-07-05 11:41:00,
2013-07-05 07:42:00,82.9,60.0,30.21,SSW,202,3.6,3.6,46,0.00,,,0.00,VWS V14.01,2013-07-05 11:42:00,
2013-07-05 07:45:00,83.7,61.3,30.21,South,180,1.6,1.6,47,0.00,,,0.00,VWS V14.01,2013-07-05 11:45:00,
2013-07-05 07:46:00,84.2,60.6,30.21,SW,225,1.1,1.1,45,0.00,,,0.00,VWS V14.01,2013-07-05 11:46:00,
2013-07-05 07:48:00,84.7,61.1,30.21,South,180,2.2,2.2,45,0.00,,,0.00,VWS V14.01,2013-07-05 11:48:00,
2013-07-05 07:51:00,85.6,61.2,30.21,SW,225,3.6,3.6,44,0.00,,,0.00,VWS V14.01,2013-07-05 11:51:00,
2013-07-05 07:52:00,85.6,61.2,30.21,SW,225,3.6,3.6,44,0.00,,,0.00,VWS V14.01,2013-07-05 11:52:00,
2013-07-05 07:53:00,85.6,61.2,30.21,SSW,202,1.1,1.1,44,0.00,,,0.00,VWS V14.01,2013-07-05 11:53:00,
2013-07-05 07:56:00,84.7,59.1,30.21,SW,225,2.9,5.6,42,0.00,,,0.00,VWS V14.01,2013-07-05 11:56:00,
2013-07-05 07:57:00,84.7,59.1,30.21,SW,225,2.9,5.6,42,0.00,,,0.00,VWS V14.01,2013-07-05 11:57:00,
2013-07-05 07:59:00,85.1,60.1,30.21,SSW,202,2.0,3.1,43,0.00,,,0.00,VWS V14.01,2013-07-05 11:59:00,
2013-07-05 08:02:00,85.6,60.6,30.21,SSE,158,2.7,2.7,43,0.00,,,0.00,VWS V14.01,2013-07-05 12:02:00,
2013-07-05 08:04:00,86.2,60.4,30.21,ENE,68,2.0,2.0,42,0.00,,,0.00,VWS V14.01,2013-07-05 12:04:00,
2013-07-05 08:07:00,86.7,60.9,30.21,SSW,202,2.7,2.7,42,0.00,,,0.00,VWS V14.01,2013-07-05 12:07:00,
2013-07-05 08:08:00,86.7,60.9,30.21,SSW,202,0.0,2.7,42,0.00,,,0.00,VWS V14.01,2013-07-05 12:08:00,
2013-07-05 08:09:00,85.3,59.6,30.21,SSW,202,0.0,0.0,42,0.00,,,0.00,VWS V14.01,2013-07-05 12:09:00,
2013-07-05 08:13:00,87.6,61.7,30.21,South,180,0.0,0.0,42,0.00,,,0.00,VWS V14.01,2013-07-05 12:13:00,
2013-07-05 08:14:00,86.9,60.4,30.21,SSE,158,0.0,0.0,41,0.00,,,0.00,VWS V14.01,2013-07-05 12:14:00,
2013-07-05 08:18:00,87.3,60.0,30.21,SE,135,2.0,2.0,40,0.00,,,0.00,VWS V14.01,2013-07-05 12:18:00,
2013-07-05 08:19:00,87.3,60.0,30.21,SW,225,1.3,2.0,40,0.00,,,0.00,VWS V14.01,2013-07-05 12:19:00,
2013-07-05 08:23:00,87.8,59.8,30.21,SSE,158,0.9,5.4,39,0.00,,,0.00,VWS V14.01,2013-07-05 12:23:00,
2013-07-05 08:26:00,87.8,59.8,30.21,SW,225,1.3,2.9,39,0.00,,,0.00,VWS V14.01,2013-07-05 12:26:00,
2013-07-05 08:28:00,88.3,60.3,30.21,SE,135,2.0,3.4,39,0.00,,,0.00,VWS V14.01,2013-07-05 12:28:00,
2013-07-05 08:29:00,88.3,60.3,30.21,SE,135,2.0,3.4,39,0.00,,,0.00,VWS V14.01,2013-07-05 12:29:00,
2013-07-05 08:31:00,88.3,60.3,30.24,SW,225,3.1,3.1,39,0.00,,,0.00,VWS V14.01,2013-07-05 12:31:00,
2013-07-05 08:34:00,88.5,60.4,30.24,SE,135,1.1,1.1,39,0.00,,,0.00,VWS V14.01,2013-07-05 12:34:00,
2013-07-05 08:35:00,89.6,60.7,30.24,South,180,2.2,2.2,38,0.00,,,0.00,VWS V14.01,2013-07-05 12:35:00,
2013-07-05 08:36:00,89.6,60.7,30.24,South,180,2.2,2.2,38,0.00,,,0.00,VWS V14.01,2013-07-05 12:36:00,
2013-07-05 08:39:00,89.6,59.1,30.24,SW,225,0.9,3.6,36,0.00,,,0.00,VWS V14.01,2013-07-05 12:39:00,
2013-07-05 08:40:00,89.8,60.1,30.24,South,180,1.3,1.3,37,0.00,,,0.00,VWS V14.01,2013-07-05 12:40:00,
2013-07-05 08:41:00,89.8,60.1,30.24,South,180,0.0,0.0,37,0.00,,,0.00,VWS V14.01,2013-07-05 12:41:00,
2013-07-05 08:44:00,90.0,59.5,30.24,ESE,112,1.3,1.3,36,0.00,,,0.00,VWS V14.01,2013-07-05 12:44:00,
2013-07-05 08:45:00,90.0,59.5,30.21,SSW,202,0.0,1.3,36,0.00,,,0.00,VWS V14.01,2013-07-05 12:45:00,
2013-07-05 08:46:00,90.1,59.6,30.21,South,180,0.9,2.7,36,0.00,,,0.00,VWS V14.01,2013-07-05 12:46:00,
2013-07-05 08:49:00,90.7,60.1,30.21,South,180,1.1,2.5,36,0.00,,,0.00,VWS V14.01,2013-07-05 12:49:00,
2013-07-05 08:50:00,90.7,60.1,30.21,South,180,0.0,0.0,36,0.00,,,0.00,VWS V14.01,2013-07-05 12:50:00,
2013-07-05 08:51:00,91.0,59.6,30.21,South,180,4.9,4.9,35,0.00,,,0.00,VWS V14.01,2013-07-05 12:51:00,
2013-07-05 08:55:00,91.0,58.0,30.21,SSW,202,4.0,4.0,33,0.00,,,0.00,VWS V14.01,2013-07-05 12:55:00,
2013-07-05 08:57:00,90.3,58.2,30.21,South,180,2.9,3.6,34,0.00,,,0.00,VWS V14.01,2013-07-05 12:57:00,
2013-07-05 09:00:00,90.5,59.1,30.21,SE,135,1.3,1.3,35,0.00,,,0.00,VWS V14.01,2013-07-05 13:00:00,
2013-07-05 09:01:00,90.5,59.1,30.21,ESE,112,0.0,1.3,35,0.00,,,0.00,VWS V14.01,2013-07-05 13:01:00,
2013-07-05 09:02:00,91.0,58.8,30.21,ESE,112,0.0,0.0,34,0.00,,,0.00,VWS V14.01,2013-07-05 13:02:00,
2013-07-05 09:05:00,91.0,58.8,30.21,South,180,1.6,1.6,34,0.00,,,0.00,VWS V14.01,2013-07-05 13:05:00,
2013-07-05 09:07:00,90.7,57.7,30.21,SW,225,4.9,4.9,33,0.00,,,0.00,VWS V14.01,2013-07-05 13:07:00,
2013-07-05 09:11:00,90.0,57.0,30.21,South,180,1.6,1.6,33,0.00,,,0.00,VWS V14.01,2013-07-05 13:11:00,
2013-07-05 09:12:00,90.0,57.9,30.21,SE,135,2.2,2.2,34,0.00,,,0.00,VWS V14.01,2013-07-05 13:12:00,
2013-07-05 09:17:00,91.4,58.3,30.21,SSW,202,1.6,1.6,33,0.00,,,0.00,VWS V14.01,2013-07-05 13:17:00,
2013-07-05 09:18:00,91.4,58.3,30.21,SW,225,0.0,2.0,33,0.00,,,0.00,VWS V14.01,2013-07-05 13:18:00,
2013-07-05 09:22:00,92.8,59.5,30.21,ESE,112,1.1,1.1,33,0.00,,,0.00,VWS V14.01,2013-07-05 13:22:00,
2013-07-05 09:23:00,92.7,58.5,30.21,South,180,1.1,1.3,32,0.00,,,0.00,VWS V14.01,2013-07-05 13:23:00,
2013-07-05 09:27:00,91.6,57.6,30.21,ESE,112,2.9,2.9,32,0.00,,,0.00,VWS V14.01,2013-07-05 13:27:00,
2013-07-05 09:28:00,91.9,57.9,30.21,SE,135,0.9,0.9,32,0.00,,,0.00,VWS V14.01,2013-07-05 13:28:00,
2013-07-05 09:29:00,91.9,57.9,30.21,SW,225,0.0,0.9,32,0.00,,,0.00,VWS V14.01,2013-07-05 13:29:00,
2013-07-05 09:32:00,91.4,57.4,30.21,South,180,3.8,3.8,32,0.00,,,0.00,VWS V14.01,2013-07-05 13:32:00,
2013-07-05 09:33:00,91.4,56.5,30.21,South,180,1.6,3.8,31,0.00,,,0.00,VWS V14.01,2013-07-05 13:33:00,
2013-07-05 09:34:00,91.4,56.5,30.21,South,180,1.6,3.8,31,0.00,,,0.00,VWS V14.01,2013-07-05 13:34:00,
2013-07-05 09:38:00,92.3,57.3,30.21,SSW,202,2.5,2.5,31,0.00,,,0.00,VWS V14.01,2013-07-05 13:38:00,
2013-07-05 09:39:00,92.3,57.3,30.21,SW,225,2.0,2.0,31,0.00,,,0.00,VWS V14.01,2013-07-05 13:39:00,
2013-07-05 09:43:00,93.2,57.2,30.21,South,180,0.0,1.6,30,0.00,,,0.00,VWS V14.01,2013-07-05 13:43:00,
2013-07-05 09:44:00,93.2,57.2,30.21,South,180,0.0,0.0,30,0.00,,,0.00,VWS V14.01,2013-07-05 13:44:00,
2013-07-05 09:45:00,93.7,57.7,30.21,South,180,0.9,0.9,30,0.00,,,0.00,VWS V14.01,2013-07-05 13:45:00,
2013-07-05 09:48:00,94.8,57.6,30.21,SSE,158,0.0,0.0,29,0.00,,,0.00,VWS V14.01,2013-07-05 13:48:00,
2013-07-05 09:49:00,94.8,57.6,30.21,SSE,158,1.1,1.1,29,0.00,,,0.00,VWS V14.01,2013-07-05 13:49:00,
2013-07-05 09:50:00,94.8,57.6,30.21,SSE,158,0.0,1.1,29,0.00,,,0.00,VWS V14.01,2013-07-05 13:50:00,
2013-07-05 09:53:00,93.7,56.7,30.21,SSE,158,1.6,1.6,29,0.00,,,0.00,VWS V14.01,2013-07-05 13:53:00,
2013-07-05 09:54:00,93.7,56.7,30.21,ESE,112,1.1,1.1,29,0.00,,,0.00,VWS V14.01,2013-07-05 13:54:00,
2013-07-05 09:55:00,94.3,57.2,30.21,South,180,0.0,1.1,29,0.00,,,0.00,VWS V14.01,2013-07-05 13:55:00,
2013-07-05 09:58:00,93.9,56.9,30.21,South,180,0.9,0.9,29,0.00,,,0.00,VWS V14.01,2013-07-05 13:58:00,
2013-07-05 09:59:00,93.9,56.9,30.21,South,180,0.0,0.0,29,0.00,,,0.00,VWS V14.01,2013-07-05 13:59:00,
2013-07-05 10:00:00,94.5,57.3,30.21,South,180,1.1,1.1,29,0.00,,,0.00,VWS V14.01,2013-07-05 14:00:00,
2013-07-05 10:04:00,95.0,56.8,30.21,SE,135,0.0,0.0,28,0.00,,,0.00,VWS V14.01,2013-07-05 14:04:00,
2013-07-05 10:05:00,94.6,56.5,30.21,South,180,0.0,2.0,28,0.00,,,0.00,VWS V14.01,2013-07-05 14:05:00,
2013-07-05 10:06:00,94.6,56.5,30.21,South,180,0.0,2.0,28,0.00,,,0.00,VWS V14.01,2013-07-05 14:06:00,
2013-07-05 10:09:00,95.2,57.0,30.21,South,180,2.5,2.5,28,0.00,,,0.00,VWS V14.01,2013-07-05 14:09:00,
2013-07-05 10:10:00,94.3,56.2,30.21,South,180,3.4,3.4,28,0.00,,,0.00,VWS V14.01,2013-07-05 14:10:00,
2013-07-05 10:11:00,94.3,56.2,30.21,South,180,3.4,3.4,28,0.00,,,0.00,VWS V14.01,2013-07-05 14:11:00,
2013-07-05 10:15:00,93.7,55.7,30.21,South,180,1.3,1.3,28,0.00,,,0.00,VWS V14.01,2013-07-05 14:15:00,
2013-07-05 10:16:00,94.8,56.7,30.21,South,180,1.3,1.3,28,0.00,,,0.00,VWS V14.01,2013-07-05 14:16:00,
2013-07-05 10:17:00,94.8,56.7,30.21,SSE,158,1.1,1.1,28,0.00,,,0.00,VWS V14.01,2013-07-05 14:17:00,
2013-07-05 10:20:00,95.4,56.1,30.21,SSW,202,3.4,3.4,27,0.00,,,0.00,VWS V14.01,2013-07-05 14:20:00,
2013-07-05 10:21:00,95.4,56.1,30.21,SSE,158,1.3,3.4,27,0.00,,,0.00,VWS V14.01,2013-07-05 14:21:00,
2013-07-05 10:22:00,94.8,55.7,30.21,South,180,2.5,2.5,27,0.00,,,0.00,VWS V14.01,2013-07-05 14:22:00,
2013-07-05 10:25:00,94.1,56.0,30.21,South,180,2.5,2.5,28,0.00,,,0.00,VWS V14.01,2013-07-05 14:25:00,
2013-07-05 10:26:00,94.1,56.0,30.21,South,180,2.5,2.5,28,0.00,,,0.00,VWS V14.01,2013-07-05 14:26:00,
2013-07-05 10:27:00,93.9,54.9,30.21,South,180,1.1,1.1,27,0.00,,,0.00,VWS V14.01,2013-07-05 14:27:00,
2013-07-05 10:28:00,93.9,54.9,30.21,South,180,1.1,1.1,27,0.00,,,0.00,VWS V14.01,2013-07-05 14:28:00,
2013-07-05 10:30:00,94.8,55.7,30.21,South,180,1.6,1.6,27,0.00,,,0.00,VWS V14.01,2013-07-05 14:30:00,
2013-07-05 10:31:00,94.8,55.7,30.21,South,180,2.0,2.0,27,0.00,,,0.00,VWS V14.01,2013-07-05 14:31:00,
2013-07-05 10:32:00,95.0,55.8,30.21,South,180,1.3,2.0,27,0.00,,,0.00,VWS V14.01,2013-07-05 14:32:00,
2013-07-05 10:33:00,95.0,55.8,30.21,South,180,1.3,2.0,27,0.00,,,0.00,VWS V14.01,2013-07-05 14:33:00,
2013-07-05 10:36:00,94.6,55.5,30.21,South,180,1.3,2.2,27,0.00,,,0.00,VWS V14.01,2013-07-05 14:36:00,
2013-07-05 10:37:00,94.5,55.3,30.21,South,180,2.0,2.0,27,0.00,,,0.00,VWS V14.01,2013-07-05 14:37:00,
2013-07-05 10:38:00,94.5,55.3,30.21,South,180,2.0,2.0,27,0.00,,,0.00,VWS V14.01,2013-07-05 14:38:00,
2013-07-05 10:41:00,94.3,55.2,30.21,South,180,2.7,2.7,27,0.00,,,0.00,VWS V14.01,2013-07-05 14:41:00,
2013-07-05 10:42:00,94.3,55.2,30.21,South,180,2.0,2.0,27,0.00,,,0.00,VWS V14.01,2013-07-05 14:42:00,
2013-07-05 10:43:00,94.1,55.0,30.21,South,180,3.4,3.4,27,0.00,,,0.00,VWS V14.01,2013-07-05 14:43:00,
2013-07-05 10:46:00,93.4,54.4,30.21,SW,225,1.6,2.9,27,0.00,,,0.00,VWS V14.01,2013-07-05 14:46:00,
2013-07-05 10:47:00,93.4,54.4,30.21,SE,135,2.7,2.9,27,0.00,,,0.00,VWS V14.01,2013-07-05 14:47:00,
2013-07-05 10:48:00,93.6,54.6,30.21,SSE,158,0.0,2.7,27,0.00,,,0.00,VWS V14.01,2013-07-05 14:48:00,
2013-07-05 10:51:00,94.5,55.3,30.21,SW,225,0.9,0.9,27,0.00,,,0.00,VWS V14.01,2013-07-05 14:51:00,
2013-07-05 10:52:00,94.5,55.3,30.21,SSW,202,2.0,2.0,27,0.00,,,0.00,VWS V14.01,2013-07-05 14:52:00,
2013-07-05 10:53:00,94.3,55.2,30.21,South,180,1.3,2.2,27,0.00,,,0.00,VWS V14.01,2013-07-05 14:53:00,
2013-07-05 10:54:00,94.3,55.2,30.21,South,180,1.3,2.2,27,0.00,,,0.00,VWS V14.01,2013-07-05 14:54:00,
2013-07-05 10:56:00,94.3,55.2,30.21,SSW,202,0.0,0.9,27,0.00,,,0.00,VWS V14.01,2013-07-05 14:56:00,
2013-07-05 10:57:00,94.3,55.2,30.21,SSW,202,1.1,1.1,27,0.00,,,0.00,VWS V14.01,2013-07-05 14:57:00,
2013-07-05 10:59:00,94.3,55.2,30.21,South,180,1.3,1.3,27,0.00,,,0.00,VWS V14.01,2013-07-05 14:59:00,
2013-07-05 11:00:00,94.8,55.7,30.18,ESE,112,1.3,2.2,27,0.00,,,0.00,VWS V14.01,2013-07-05 15:00:00,
2013-07-05 11:02:00,95.2,56.0,30.18,SW,225,1.6,1.6,27,0.00,,,0.00,VWS V14.01,2013-07-05 15:02:00,
2013-07-05 11:04:00,95.2,54.9,30.18,South,180,1.1,1.1,26,0.00,,,0.00,VWS V14.01,2013-07-05 15:04:00,
2013-07-05 11:06:00,95.0,54.8,30.18,SSW,202,0.9,0.9,26,0.00,,,0.00,VWS V14.01,2013-07-05 15:06:00,
2013-07-05 11:07:00,95.0,54.8,30.18,SSW,202,0.9,0.9,26,0.00,,,0.00,VWS V14.01,2013-07-05 15:07:00,
2013-07-05 11:10:00,95.2,54.9,30.18,SSW,202,2.5,2.7,26,0.00,,,0.00,VWS V14.01,2013-07-05 15:10:00,
2013-07-05 11:12:00,94.3,54.2,30.18,SSW,202,2.7,2.7,26,0.00,,,0.00,VWS V14.01,2013-07-05 15:12:00,
2013-07-05 11:13:00,94.1,54.0,30.18,SSW,202,2.7,2.7,26,0.00,,,0.00,VWS V14.01,2013-07-05 15:13:00,
2013-07-05 11:15:00,93.9,53.9,30.18,SSW,202,2.7,2.7,26,0.00,,,0.00,VWS V14.01,2013-07-05 15:15:00,
2013-07-05 11:17:00,94.1,52.9,30.18,South,180,0.0,2.5,25,0.00,,,0.00,VWS V14.01,2013-07-05 15:17:00,
2013-07-05 11:18:00,93.9,53.9,30.18,South,180,2.5,2.5,26,0.00,,,0.00,VWS V14.01,2013-07-05 15:18:00,
2013-07-05 11:19:00,93.9,53.9,30.18,South,180,4.7,4.7,26,0.00,,,0.00,VWS V14.01,2013-07-05 15:19:00,
2013-07-05 11:20:00,93.7,52.6,30.18,SSW,202,2.0,2.0,25,0.00,,,0.00,VWS V14.01,2013-07-05 15:20:00,
2013-07-05 11:22:00,93.9,52.8,30.18,SSW,202,2.2,2.2,25,0.00,,,0.00,VWS V14.01,2013-07-05 15:22:00,
2013-07-05 11:23:00,94.1,52.9,30.18,WNW,292,1.6,2.2,25,0.00,,,0.00,VWS V14.01,2013-07-05 15:23:00,
2013-07-05 11:24:00,94.1,52.9,30.18,SSE,158,0.0,0.0,25,0.00,,,0.00,VWS V14.01,2013-07-05 15:24:00,
2013-07-05 11:25:00,94.5,53.2,30.18,South,180,1.1,3.4,25,0.00,,,0.00,VWS V14.01,2013-07-05 15:25:00,
2013-07-05 11:27:00,94.5,53.2,30.18,East,90,1.3,1.3,25,0.00,,,0.00,VWS V14.01,2013-07-05 15:27:00,
2013-07-05 11:28:00,95.4,51.7,30.18,South,180,2.2,2.2,23,0.00,,,0.00,VWS V14.01,2013-07-05 15:28:00,
2013-07-05 11:29:00,95.4,51.7,30.18,South,180,3.6,3.6,23,0.00,,,0.00,VWS V14.01,2013-07-05 15:29:00,
2013-07-05 11:30:00,94.8,53.5,30.18,South,180,3.1,3.6,25,0.00,,,0.00,VWS V14.01,2013-07-05 15:30:00,
2013-07-05 11:32:00,94.8,53.5,30.18,South,180,1.6,2.0,25,0.00,,,0.00,VWS V14.01,2013-07-05 15:32:00,
2013-07-05 11:34:00,94.8,54.6,30.18,South,180,1.6,1.6,26,0.00,,,0.00,VWS V14.01,2013-07-05 15:34:00,
2013-07-05 11:35:00,94.8,54.6,30.18,South,180,2.9,2.9,26,0.00,,,0.00,VWS V14.01,2013-07-05 15:35:00,
2013-07-05 11:37:00,95.4,55.1,30.18,SSE,158,1.1,1.1,26,0.00,,,0.00,VWS V14.01,2013-07-05 15:37:00,
2013-07-05 11:39:00,95.7,54.3,30.18,South,180,1.6,1.6,25,0.00,,,0.00,VWS V14.01,2013-07-05 15:39:00,
2013-07-05 11:40:00,95.7,54.3,30.18,SW,225,3.1,3.1,25,0.00,,,0.00,VWS V14.01,2013-07-05 15:40:00,
2013-07-05 11:42:00,94.6,49.9,30.18,South,180,3.1,3.1,22,0.00,,,0.00,VWS V14.01,2013-07-05 15:42:00,
2013-07-05 11:44:00,94.8,51.3,30.18,SSE,158,1.1,1.1,23,0.00,,,0.00,VWS V14.01,2013-07-05 15:44:00,
2013-07-05 11:45:00,94.8,51.3,30.18,South,180,2.5,2.9,23,0.00,,,0.00,VWS V14.01,2013-07-05 15:45:00,
2013-07-05 11:47:00,94.5,51.0,30.18,South,180,2.5,2.5,23,0.00,,,0.00,VWS V14.01,2013-07-05 15:47:00,
2013-07-05 11:49:00,94.8,50.1,30.18,South,180,3.4,3.4,22,0.00,,,0.00,VWS V14.01,2013-07-05 15:49:00,
2013-07-05 11:50:00,94.3,50.8,30.18,South,180,1.1,1.1,23,0.00,,,0.00,VWS V14.01,2013-07-05 15:50:00,
2013-07-05 11:51:00,94.3,50.8,30.18,South,180,1.1,1.1,23,0.00,,,0.00,VWS V14.01,2013-07-05 15:51:00,
2013-07-05 11:52:00,94.5,51.0,30.18,South,180,0.0,0.0,23,0.00,,,0.00,VWS V14.01,2013-07-05 15:52:00,
2013-07-05 11:54:00,94.8,51.3,30.18,South,180,3.6,3.6,23,0.00,,,0.00,VWS V14.01,2013-07-05 15:54:00,
2013-07-05 11:55:00,94.6,51.1,30.18,South,180,3.1,3.6,23,0.00,,,0.00,VWS V14.01,2013-07-05 15:55:00,
2013-07-05 11:56:00,94.6,51.1,30.18,South,180,1.6,3.6,23,0.00,,,0.00,VWS V14.01,2013-07-05 15:56:00,
2013-07-05 11:57:00,94.8,51.3,30.18,SSE,158,2.2,2.2,23,0.00,,,0.00,VWS V14.01,2013-07-05 15:57:00,
2013-07-05 11:59:00,95.7,50.8,30.18,ENE,68,2.2,2.2,22,0.00,,,0.00,VWS V14.01,2013-07-05 15:59:00,
2013-07-05 12:00:00,95.9,51.0,30.18,South,180,1.3,2.0,22,0.00,,,0.00,VWS V14.01,2013-07-05 16:00:00,
2013-07-05 12:01:00,95.9,51.0,30.18,South,180,1.3,2.0,22,0.00,,,0.00,VWS V14.01,2013-07-05 16:01:00,
2013-07-05 12:03:00,95.9,51.0,30.18,NNW,338,5.6,5.6,22,0.00,,,0.00,VWS V14.01,2013-07-05 16:03:00,
2013-07-05 12:04:00,95.9,51.0,30.18,NNE,22,1.1,1.1,22,0.00,,,0.00,VWS V14.01,2013-07-05 16:04:00,
2013-07-05 12:05:00,95.9,51.0,30.18,NNE,22,1.1,1.1,22,0.00,,,0.00,VWS V14.01,2013-07-05 16:05:00,
2013-07-05 12:06:00,95.9,49.7,30.18,SSE,158,0.9,1.1,21,0.00,,,0.00,VWS V14.01,2013-07-05 16:06:00,
2013-07-05 12:08:00,95.7,50.8,30.18,North,0,2.9,2.9,22,0.00,,,0.00,VWS V14.01,2013-07-05 16:08:00,
2013-07-05 12:09:00,95.2,49.1,30.18,West,270,2.9,2.9,21,0.00,,,0.00,VWS V14.01,2013-07-05 16:09:00,
2013-07-05 12:10:00,95.2,49.1,30.18,SSE,158,2.5,2.9,21,0.00,,,0.00,VWS V14.01,2013-07-05 16:10:00,
2013-07-05 12:11:00,95.4,49.3,30.18,SSW,202,1.1,2.5,21,0.00,,,0.00,VWS V14.01,2013-07-05 16:11:00,
2013-07-05 12:13:00,95.7,49.6,30.18,SSE,158,3.1,3.1,21,0.00,,,0.00,VWS V14.01,2013-07-05 16:13:00,
2013-07-05 12:14:00,95.5,48.1,30.18,South,180,2.0,2.7,20,0.00,,,0.00,VWS V14.01,2013-07-05 16:14:00,
2013-07-05 12:15:00,95.5,48.1,30.18,South,180,2.0,2.7,20,0.00,,,0.00,VWS V14.01,2013-07-05 16:15:00,
2013-07-05 12:16:00,95.4,49.3,30.18,ENE,68,2.0,2.0,21,0.00,,,0.00,VWS V14.01,2013-07-05 16:16:00,
2013-07-05 12:18:00,95.5,48.1,30.18,South,180,2.5,2.5,20,0.00,,,0.00,VWS V14.01,2013-07-05 16:18:00,
2013-07-05 12:19:00,95.9,49.7,30.18,ESE,112,2.5,2.5,21,0.00,,,0.00,VWS V14.01,2013-07-05 16:19:00,
2013-07-05 12:20:00,95.9,49.7,30.18,SSE,158,2.9,2.9,21,0.00,,,0.00,VWS V14.01,2013-07-05 16:20:00,
2013-07-05 12:21:00,96.3,50.0,30.18,SSE,158,1.1,1.1,21,0.00,,,0.00,VWS V14.01,2013-07-05 16:21:00,
2013-07-05 12:23:00,96.4,50.2,30.18,South,180,1.3,1.3,21,0.00,,,0.00,VWS V14.01,2013-07-05 16:23:00,
2013-07-05 12:24:00,97.0,50.6,30.18,WNW,292,2.9,2.9,21,0.00,,,0.00,VWS V14.01,2013-07-05 16:24:00,
2013-07-05 12:25:00,97.0,50.6,30.18,WNW,292,2.9,2.9,21,0.00,,,0.00,VWS V14.01,2013-07-05 16:25:00,
2013-07-05 12:26:00,96.8,49.2,30.18,South,180,1.1,1.1,20,0.00,,,0.00,VWS V14.01,2013-07-05 16:26:00,
2013-07-05 12:27:00,96.8,49.2,30.18,South,180,1.1,1.1,20,0.00,,,0.00,VWS V14.01,2013-07-05 16:27:00,
2013-07-05 12:28:00,95.9,48.4,30.18,South,180,2.7,2.7,20,0.00,,,0.00,VWS V14.01,2013-07-05 16:28:00,
2013-07-05 12:30:00,95.9,48.4,30.18,South,180,2.7,2.7,20,0.00,,,0.00,VWS V14.01,2013-07-05 16:30:00,
2013-07-05 12:31:00,96.3,48.7,30.18,SSW,202,2.9,2.9,20,0.00,,,0.00,VWS V14.01,2013-07-05 16:31:00,
2013-07-05 12:32:00,96.3,48.7,30.18,SSW,202,2.9,2.9,20,0.00,,,0.00,VWS V14.01,2013-07-05 16:32:00,
2013-07-05 12:33:00,96.1,48.6,30.18,SW,225,2.2,2.2,20,0.00,,,0.00,VWS V14.01,2013-07-05 16:33:00,
2013-07-05 12:35:00,96.1,48.6,30.18,South,180,1.1,2.2,20,0.00,,,0.00,VWS V14.01,2013-07-05 16:35:00,
2013-07-05 12:36:00,96.4,48.9,30.18,SSW,202,2.2,2.2,20,0.00,,,0.00,VWS V14.01,2013-07-05 16:36:00,
2013-07-05 12:37:00,96.4,48.9,30.18,South,180,2.2,2.2,20,0.00,,,0.00,VWS V14.01,2013-07-05 16:37:00,
2013-07-05 12:38:00,97.0,47.9,30.18,South,180,1.3,1.3,19,0.00,,,0.00,VWS V14.01,2013-07-05 16:38:00,
2013-07-05 12:40:00,97.0,47.9,30.18,SE,135,3.4,3.4,19,0.00,,,0.00,VWS V14.01,2013-07-05 16:40:00,
2013-07-05 12:42:00,97.3,48.2,30.18,WNW,292,0.9,1.6,19,0.00,,,0.00,VWS V14.01,2013-07-05 16:42:00,
2013-07-05 12:44:00,97.0,49.3,30.18,East,90,2.0,2.0,20,0.00,,,0.00,VWS V14.01,2013-07-05 16:44:00,
2013-07-05 12:45:00,96.3,48.7,30.18,East,90,2.0,2.0,20,0.00,,,0.00,VWS V14.01,2013-07-05 16:45:00,
2013-07-05 12:47:00,96.8,47.8,30.18,ENE,68,1.3,1.6,19,0.00,,,0.00,VWS V14.01,2013-07-05 16:47:00,
2013-07-05 12:49:00,97.7,48.5,30.18,South,180,0.0,0.0,19,0.00,,,0.00,VWS V14.01,2013-07-05 16:49:00,
2013-07-05 12:50:00,97.7,48.5,30.18,SSW,202,0.9,0.9,19,0.00,,,0.00,VWS V14.01,2013-07-05 16:50:00,
2013-07-05 12:52:00,97.5,46.9,30.18,SE,135,3.4,3.4,18,0.00,,,0.00,VWS V14.01,2013-07-05 16:52:00,
2013-07-05 12:54:00,97.2,48.1,30.18,SW,225,2.0,2.0,19,0.00,,,0.00,VWS V14.01,2013-07-05 16:54:00,
2013-07-05 12:55:00,96.8,47.8,30.18,SSW,202,0.9,2.0,19,0.00,,,0.00,VWS V14.01,2013-07-05 16:55:00,
2013-07-05 12:57:00,97.3,48.2,30.18,South,180,0.9,1.3,19,0.00,,,0.00,VWS V14.01,2013-07-05 16:57:00,
2013-07-05 12:59:00,97.3,48.2,30.18,South,180,2.2,2.2,19,0.00,,,0.00,VWS V14.01,2013-07-05 16:59:00,
2013-07-05 13:01:00,96.3,47.3,30.18,SSW,202,2.0,2.7,19,0.00,,,0.00,VWS V14.01,2013-07-05 17:01:00,
2013-07-05 13:02:00,95.5,46.8,30.18,WSW,248,1.6,1.6,19,0.00,,,0.00,VWS V14.01,2013-07-05 17:02:00,
2013-07-05 13:04:00,94.5,47.2,30.18,South,180,3.1,3.1,20,0.00,,,0.00,VWS V14.01,2013-07-05 17:04:00,
2013-07-05 13:06:00,94.8,47.5,30.18,South,180,0.9,3.1,20,0.00,,,0.00,VWS V14.01,2013-07-05 17:06:00,
2013-07-05 13:07:00,95.5,48.1,30.18,South,180,2.9,2.9,20,0.00,,,0.00,VWS V14.01,2013-07-05 17:07:00,
2013-07-05 13:10:00,96.4,48.9,30.18,South,180,3.1,3.1,20,0.00,,,0.00,VWS V14.01,2013-07-05 17:10:00,
2013-07-05 13:11:00,97.0,47.9,30.18,WSW,248,2.7,2.7,19,0.00,,,0.00,VWS V14.01,2013-07-05 17:11:00,
2013-07-05 13:12:00,97.0,47.9,30.18,SSW,202,2.5,2.5,19,0.00,,,0.00,VWS V14.01,2013-07-05 17:12:00,
2013-07-05 13:13:00,97.0,47.9,30.18,SSW,202,2.5,2.5,19,0.00,,,0.00,VWS V14.01,2013-07-05 17:13:00,
2013-07-05 13:15:00,97.0,46.5,30.18,South,180,2.5,2.9,18,0.00,,,0.00,VWS V14.01,2013-07-05 17:15:00,
2013-07-05 13:16:00,97.2,46.6,30.18,SSE,158,2.7,2.7,18,0.00,,,0.00,VWS V14.01,2013-07-05 17:16:00,
2013-07-05 13:17:00,97.2,46.6,30.18,SW,225,0.0,2.5,18,0.00,,,0.00,VWS V14.01,2013-07-05 17:17:00,
2013-07-05 13:18:00,97.2,48.1,30.18,SW,225,0.0,0.0,19,0.00,,,0.00,VWS V14.01,2013-07-05 17:18:00,
2013-07-05 13:20:00,97.9,48.7,30.18,SW,225,2.5,2.5,19,0.00,,,0.00,VWS V14.01,2013-07-05 17:20:00,
2013-07-05 13:21:00,97.9,48.7,30.18,SW,225,0.0,2.5,19,0.00,,,0.00,VWS V14.01,2013-07-05 17:21:00,
2013-07-05 13:22:00,98.2,47.5,30.18,NE,45,1.3,2.5,18,0.00,,,0.00,VWS V14.01,2013-07-05 17:22:00,
2013-07-05 13:23:00,98.6,47.8,30.18,NE,45,1.3,1.3,18,0.00,,,0.00,VWS V14.01,2013-07-05 17:23:00,
2013-07-05 13:25:00,97.9,47.2,30.18,South,180,2.0,2.5,18,0.00,,,0.00,VWS V14.01,2013-07-05 17:25:00,
2013-07-05 13:26:00,97.9,47.2,30.18,SW,225,3.1,3.1,18,0.00,,,0.00,VWS V14.01,2013-07-05 17:26:00,
2013-07-05 13:28:00,96.4,46.1,30.18,SSW,202,2.9,2.9,18,0.00,,,0.00,VWS V14.01,2013-07-05 17:28:00,
2013-07-05 13:30:00,95.7,46.9,30.18,SSE,158,2.5,2.5,19,0.00,,,0.00,VWS V14.01,2013-07-05 17:30:00,
2013-07-05 13:31:00,95.7,46.9,30.18,WSW,248,3.1,3.1,19,0.00,,,0.00,VWS V14.01,2013-07-05 17:31:00,
2013-07-05 13:33:00,95.4,45.2,30.18,SW,225,0.9,0.9,18,0.00,,,0.00,VWS V14.01,2013-07-05 17:33:00,
2013-07-05 13:35:00,95.4,46.6,30.18,WSW,248,0.0,1.1,19,0.00,,,0.00,VWS V14.01,2013-07-05 17:35:00,
2013-07-05 13:36:00,95.5,46.8,30.18,South,180,3.1,3.1,19,0.00,,,0.00,VWS V14.01,2013-07-05 17:36:00,
2013-07-05 13:37:00,95.5,46.8,30.18,South,180,3.1,3.1,19,0.00,,,0.00,VWS V14.01,2013-07-05 17:37:00,
2013-07-05 13:38:00,95.9,45.6,30.18,SE,135,2.7,3.1,18,0.00,,,0.00,VWS V14.01,2013-07-05 17:38:00,
2013-07-05 13:40:00,96.1,45.8,30.18,South,180,2.0,2.0,18,0.00,,,0.00,VWS V14.01,2013-07-05 17:40:00,
2013-07-05 13:41:00,95.9,47.0,30.18,South,180,1.6,2.0,19,0.00,,,0.00,VWS V14.01,2013-07-05 17:41:00,
2013-07-05 13:42:00,95.9,47.0,30.18,South,180,1.6,2.0,19,0.00,,,0.00,VWS V14.01,2013-07-05 17:42:00,
2013-07-05 13:43:00,96.3,47.3,30.18,East,90,1.6,2.9,19,0.00,,,0.00,VWS V14.01,2013-07-05 17:43:00,
2013-07-05 13:44:00,96.3,47.3,30.18,South,180,4.0,4.0,19,0.00,,,0.00,VWS V14.01,2013-07-05 17:44:00,
2013-07-05 13:45:00,96.6,47.6,30.18,South,180,1.1,1.1,19,0.00,,,0.00,VWS V14.01,2013-07-05 17:45:00,
2013-07-05 13:46:00,96.6,47.6,30.18,South,180,0.0,2.2,19,0.00,,,0.00,VWS V14.01,2013-07-05 17:46:00,
2013-07-05 13:47:00,96.6,47.6,30.18,South,180,0.0,0.0,19,0.00,,,0.00,VWS V14.01,2013-07-05 17:47:00,
2013-07-05 13:48:00,96.3,45.9,30.18,South,180,3.1,3.1,18,0.00,,,0.00,VWS V14.01,2013-07-05 17:48:00,
2013-07-05 13:49:00,96.3,45.9,30.18,South,180,2.7,3.1,18,0.00,,,0.00,VWS V14.01,2013-07-05 17:49:00,
2013-07-05 13:51:00,95.5,45.3,30.18,South,180,2.9,3.4,18,0.00,,,0.00,VWS V14.01,2013-07-05 17:51:00,
2013-07-05 13:52:00,95.7,45.5,30.18,South,180,2.0,2.0,18,0.00,,,0.00,VWS V14.01,2013-07-05 17:52:00,
2013-07-05 13:53:00,95.9,45.6,30.18,South,180,2.7,2.7,18,0.00,,,0.00,VWS V14.01,2013-07-05 17:53:00,
2013-07-05 13:54:00,95.9,45.6,30.18,SSW,202,1.3,1.3,18,0.00,,,0.00,VWS V14.01,2013-07-05 17:54:00,
2013-07-05 13:56:00,96.4,47.5,30.18,South,180,2.0,2.0,19,0.00,,,0.00,VWS V14.01,2013-07-05 17:56:00,
2013-07-05 13:57:00,96.6,47.6,30.18,South,180,2.2,2.2,19,0.00,,,0.00,VWS V14.01,2013-07-05 17:57:00,
2013-07-05 13:58:00,96.6,47.6,30.18,SSW,202,2.5,2.5,19,0.00,,,0.00,VWS V14.01,2013-07-05 17:58:00,
2013-07-05 13:59:00,96.8,46.3,30.18,SSW,202,1.6,1.6,18,0.00,,,0.00,VWS V14.01,2013-07-05 17:59:00,
2013-07-05 14:01:00,97.0,46.5,30.18,SW,225,2.0,2.0,18,0.00,,,0.00,VWS V14.01,2013-07-05 18:01:00,
2013-07-05 14:02:00,97.2,48.1,30.18,SW,225,2.0,2.0,19,0.00,,,0.00,VWS V14.01,2013-07-05 18:02:00,
2013-07-05 14:03:00,97.2,48.1,30.18,SSW,202,1.3,2.0,19,0.00,,,0.00,VWS V14.01,2013-07-05 18:03:00,
2013-07-05 14:04:00,97.2,46.6,30.18,SSE,158,3.6,3.6,18,0.00,,,0.00,VWS V14.01,2013-07-05 18:04:00,
2013-07-05 14:06:00,97.0,46.5,30.18,South,180,0.0,0.0,18,0.00,,,0.00,VWS V14.01,2013-07-05 18:06:00,
2013-07-05 14:07:00,97.0,46.5,30.18,South,180,0.0,0.0,18,0.00,,,0.00,VWS V14.01,2013-07-05 18:07:00,
2013-07-05 14:08:00,97.2,46.6,30.18,South,180,2.0,2.9,18,0.00,,,0.00,VWS V14.01,2013-07-05 18:08:00,
2013-07-05 14:09:00,97.0,46.5,30.18,South,180,2.5,2.5,18,0.00,,,0.00,VWS V14.01,2013-07-05 18:09:00,
2013-07-05 14:11:00,97.0,46.5,30.18,SW,225,4.3,4.3,18,0.00,,,0.00,VWS V14.01,2013-07-05 18:11:00,
2013-07-05 14:12:00,97.0,46.5,30.18,South,180,3.8,3.8,18,0.00,,,0.00,VWS V14.01,2013-07-05 18:12:00,
2013-07-05 14:13:00,96.6,46.2,30.18,West,270,2.0,3.8,18,0.00,,,0.00,VWS V14.01,2013-07-05 18:13:00,
2013-07-05 14:14:00,96.6,46.2,30.15,South,180,5.4,5.4,18,0.00,,,0.00,VWS V14.01,2013-07-05 18:14:00,
2013-07-05 14:16:00,96.4,46.1,30.15,South,180,2.5,4.7,18,0.00,,,0.00,VWS V14.01,2013-07-05 18:16:00,
2013-07-05 14:17:00,96.4,46.1,30.15,South,180,2.5,4.7,18,0.00,,,0.00,VWS V14.01,2013-07-05 18:17:00,
2013-07-05 14:18:00,96.3,45.9,30.15,South,180,3.4,3.4,18,0.00,,,0.00,VWS V14.01,2013-07-05 18:18:00,
2013-07-05 14:19:00,96.4,46.1,30.15,SSE,158,2.9,2.9,18,0.00,,,0.00,VWS V14.01,2013-07-05 18:19:00,
2013-07-05 14:22:00,96.1,45.8,30.15,SW,225,2.0,2.0,18,0.00,,,0.00,VWS V14.01,2013-07-05 18:22:00,
2013-07-05 14:23:00,96.1,45.8,30.15,SW,225,2.7,2.7,18,0.00,,,0.00,VWS V14.01,2013-07-05 18:23:00,
2013-07-05 14:24:00,96.1,45.8,30.15,SW,225,1.3,1.6,18,0.00,,,0.00,VWS V14.01,2013-07-05 18:24:00,
2013-07-05 14:27:00,96.1,45.8,30.15,East,90,2.5,2.5,18,0.00,,,0.00,VWS V14.01,2013-07-05 18:27:00,
2013-07-05 14:28:00,96.1,45.8,30.15,South,180,5.4,5.4,18,0.00,,,0.00,VWS V14.01,2013-07-05 18:28:00,
2013-07-05 14:29:00,95.9,45.6,30.15,WSW,248,1.1,1.6,18,0.00,,,0.00,VWS V14.01,2013-07-05 18:29:00,
2013-07-05 14:32:00,95.9,45.6,30.15,SSE,158,2.7,2.7,18,0.00,,,0.00,VWS V14.01,2013-07-05 18:32:00,
2013-07-05 14:33:00,95.9,45.6,30.15,SW,225,2.5,2.5,18,0.00,,,0.00,VWS V14.01,2013-07-05 18:33:00,
2013-07-05 14:35:00,96.1,45.8,30.15,SW,225,2.5,2.5,18,0.00,,,0.00,VWS V14.01,2013-07-05 18:35:00,
2013-07-05 14:37:00,95.7,45.5,30.15,South,180,3.1,4.0,18,0.00,,,0.00,VWS V14.01,2013-07-05 18:37:00,
2013-07-05 14:38:00,95.7,45.5,30.15,South,180,3.1,3.1,18,0.00,,,0.00,VWS V14.01,2013-07-05 18:38:00,
2013-07-05 14:39:00,95.9,45.6,30.15,SSW,202,2.0,2.0,18,0.00,,,0.00,VWS V14.01,2013-07-05 18:39:00,
2013-07-05 14:40:00,95.9,45.6,30.15,South,180,2.5,2.5,18,0.00,,,0.00,VWS V14.01,2013-07-05 18:40:00,
2013-07-05 14:42:00,95.7,45.5,30.15,South,180,3.6,3.6,18,0.00,,,0.00,VWS V14.01,2013-07-05 18:42:00,
2013-07-05 14:43:00,95.5,45.3,30.15,South,180,5.4,5.4,18,0.00,,,0.00,VWS V14.01,2013-07-05 18:43:00,
2013-07-05 14:44:00,95.4,45.2,30.15,SSE,158,1.6,2.9,18,0.00,,,0.00,VWS V14.01,2013-07-05 18:44:00,
2013-07-05 14:45:00,95.4,45.2,30.15,SSE,158,1.6,2.9,18,0.00,,,0.00,VWS V14.01,2013-07-05 18:45:00,
2013-07-05 14:47:00,95.5,45.3,30.15,SE,135,2.0,2.0,18,0.00,,,0.00,VWS V14.01,2013-07-05 18:47:00,
2013-07-05 14:48:00,95.5,45.3,30.15,SE,135,2.0,2.0,18,0.00,,,0.00,VWS V14.01,2013-07-05 18:48:00,
2013-07-05 14:50:00,95.7,45.5,30.15,ESE,112,2.0,2.0,18,0.00,,,0.00,VWS V14.01,2013-07-05 18:50:00,
2013-07-05 14:52:00,95.9,45.6,30.15,WSW,248,2.5,2.5,18,0.00,,,0.00,VWS V14.01,2013-07-05 18:52:00,
2013-07-05 14:53:00,95.9,45.6,30.15,South,180,2.7,2.7,18,0.00,,,0.00,VWS V14.01,2013-07-05 18:53:00,
2013-07-05 14:55:00,95.9,45.6,30.15,SW,225,2.7,2.7,18,0.00,,,0.00,VWS V14.01,2013-07-05 18:55:00,
2013-07-05 14:56:00,95.9,45.6,30.15,South,180,4.3,4.3,18,0.00,,,0.00,VWS V14.01,2013-07-05 18:56:00,
2013-07-05 14:58:00,95.7,45.5,30.15,SW,225,1.3,1.3,18,0.00,,,0.00,VWS V14.01,2013-07-05 18:58:00,
2013-07-05 15:00:00,96.1,45.8,30.15,ENE,68,1.1,1.6,18,0.00,,,0.00,VWS V14.01,2013-07-05 19:00:00,
2013-07-05 15:01:00,95.9,45.6,30.15,South,180,3.6,3.6,18,0.00,,,0.00,VWS V14.01,2013-07-05 19:01:00,
2013-07-05 15:03:00,95.5,43.8,30.15,South,180,1.6,2.9,17,0.00,,,0.00,VWS V14.01,2013-07-05 19:03:00,
2013-07-05 15:05:00,95.7,45.5,30.15,South,180,1.6,1.6,18,0.00,,,0.00,VWS V14.01,2013-07-05 19:05:00,
2013-07-05 15:06:00,95.5,45.3,30.15,South,180,1.3,1.6,18,0.00,,,0.00,VWS V14.01,2013-07-05 19:06:00,
2013-07-05 15:08:00,95.4,45.2,30.15,South,180,1.3,1.3,18,0.00,,,0.00,VWS V14.01,2013-07-05 19:08:00,
2013-07-05 15:09:00,95.2,45.0,30.15,South,180,0.0,0.0,18,0.00,,,0.00,VWS V14.01,2013-07-05 19:09:00,
2013-07-05 15:10:00,95.2,45.0,30.15,South,180,3.4,3.4,18,0.00,,,0.00,VWS V14.01,2013-07-05 19:10:00,
2013-07-05 15:11:00,95.0,44.9,30.15,NW,315,2.0,2.0,18,0.00,,,0.00,VWS V14.01,2013-07-05 19:11:00,
2013-07-05 15:13:00,94.8,44.8,30.15,ESE,112,2.9,2.9,18,0.00,,,0.00,VWS V14.01,2013-07-05 19:13:00,
2013-07-05 15:14:00,95.0,44.9,30.15,SE,135,2.5,2.5,18,0.00,,,0.00,VWS V14.01,2013-07-05 19:14:00,
2013-07-05 15:15:00,95.0,44.9,30.15,SW,225,3.1,3.1,18,0.00,,,0.00,VWS V14.01,2013-07-05 19:15:00,
2013-07-05 15:16:00,94.6,44.6,30.15,South,180,2.7,3.1,18,0.00,,,0.00,VWS V14.01,2013-07-05 19:16:00,
2013-07-05 15:18:00,94.6,44.6,30.15,South,180,2.0,2.2,18,0.00,,,0.00,VWS V14.01,2013-07-05 19:18:00,
2013-07-05 15:19:00,94.6,44.6,30.15,South,180,2.0,2.0,18,0.00,,,0.00,VWS V14.01,2013-07-05 19:19:00,
2013-07-05 15:20:00,94.6,44.6,30.15,ESE,112,4.0,4.0,18,0.00,,,0.00,VWS V14.01,2013-07-05 19:20:00,
2013-07-05 15:21:00,94.8,44.8,30.15,South,180,1.6,4.0,18,0.00,,,0.00,VWS V14.01,2013-07-05 19:21:00,
2013-07-05 15:23:00,95.2,45.0,30.15,South,180,1.3,1.3,18,0.00,,,0.00,VWS V14.01,2013-07-05 19:23:00,
2013-07-05 15:24:00,95.2,45.0,30.15,WNW,292,3.1,3.1,18,0.00,,,0.00,VWS V14.01,2013-07-05 19:24:00,
2013-07-05 15:25:00,95.4,45.2,30.15,NE,45,1.6,3.6,18,0.00,,,0.00,VWS V14.01,2013-07-05 19:25:00,
2013-07-05 15:26:00,95.4,45.2,30.15,South,180,2.2,2.2,18,0.00,,,0.00,VWS V14.01,2013-07-05 19:26:00,
2013-07-05 15:28:00,95.5,43.8,30.15,South,180,3.8,3.8,17,0.00,,,0.00,VWS V14.01,2013-07-05 19:28:00,
2013-07-05 15:29:00,95.5,43.8,30.15,South,180,3.8,3.8,17,0.00,,,0.00,VWS V14.01,2013-07-05 19:29:00,
2013-07-05 15:30:00,95.4,45.2,30.15,SSW,202,1.1,2.7,18,0.00,,,0.00,VWS V14.01,2013-07-05 19:30:00,
2013-07-05 15:31:00,95.4,45.2,30.15,SSE,158,1.3,1.3,18,0.00,,,0.00,VWS V14.01,2013-07-05 19:31:00,
2013-07-05 15:33:00,95.5,45.3,30.15,SSW,202,1.3,1.3,18,0.00,,,0.00,VWS V14.01,2013-07-05 19:33:00,
2013-07-05 15:34:00,95.5,45.3,30.15,South,180,1.6,1.6,18,0.00,,,0.00,VWS V14.01,2013-07-05 19:34:00,
2013-07-05 15:36:00,95.5,45.3,30.15,South,180,3.1,3.1,18,0.00,,,0.00,VWS V14.01,2013-07-05 19:36:00,
2013-07-05 15:38:00,95.4,43.7,30.15,SE,135,2.0,2.7,17,0.00,,,0.00,VWS V14.01,2013-07-05 19:38:00,
2013-07-05 15:39:00,95.2,45.0,30.15,SE,135,2.0,2.0,18,0.00,,,0.00,VWS V14.01,2013-07-05 19:39:00,
2013-07-05 15:41:00,95.0,43.4,30.15,South,180,3.4,3.4,17,0.00,,,0.00,VWS V14.01,2013-07-05 19:41:00,
2013-07-05 15:43:00,94.8,44.8,30.15,South,180,1.3,1.3,18,0.00,,,0.00,VWS V14.01,2013-07-05 19:43:00,
2013-07-05 15:44:00,94.8,44.8,30.15,South,180,4.0,4.0,18,0.00,,,0.00,VWS V14.01,2013-07-05 19:44:00,
2013-07-05 15:46:00,95.0,43.4,30.15,SW,225,2.2,2.2,17,0.00,,,0.00,VWS V14.01,2013-07-05 19:46:00,
2013-07-05 15:47:00,94.8,44.8,30.15,East,90,2.0,2.5,18,0.00,,,0.00,VWS V14.01,2013-07-05 19:47:00,
2013-07-05 15:48:00,94.8,44.8,30.15,South,180,2.2,2.2,18,0.00,,,0.00,VWS V14.01,2013-07-05 19:48:00,
2013-07-05 15:49:00,94.8,44.8,30.15,South,180,0.9,0.9,18,0.00,,,0.00,VWS V14.01,2013-07-05 19:49:00,
2013-07-05 15:51:00,94.5,44.5,30.15,SSE,158,3.6,3.6,18,0.00,,,0.00,VWS V14.01,2013-07-05 19:51:00,
2013-07-05 15:52:00,94.5,44.5,30.15,South,180,1.3,1.3,18,0.00,,,0.00,VWS V14.01,2013-07-05 19:52:00,
2013-07-05 15:53:00,94.5,44.5,30.15,South,180,2.0,2.0,18,0.00,,,0.00,VWS V14.01,2013-07-05 19:53:00,
2013-07-05 15:54:00,94.5,44.5,30.15,South,180,3.8,3.8,18,0.00,,,0.00,VWS V14.01,2013-07-05 19:54:00,
2013-07-05 15:55:00,94.5,44.5,30.15,South,180,3.8,3.8,18,0.00,,,0.00,VWS V14.01,2013-07-05 19:55:00,
2013-07-05 15:56:00,94.5,44.5,30.15,SSW,202,2.5,3.8,18,0.00,,,0.00,VWS V14.01,2013-07-05 19:56:00,
2013-07-05 15:57:00,94.5,44.5,30.15,SSW,202,2.5,2.5,18,0.00,,,0.00,VWS V14.01,2013-07-05 19:57:00,
2013-07-05 15:59:00,94.8,46.2,30.15,SSW,202,0.9,0.9,19,0.00,,,0.00,VWS V14.01,2013-07-05 19:59:00,
2013-07-05 16:00:00,94.8,46.2,30.15,South,180,0.0,1.6,19,0.00,,,0.00,VWS V14.01,2013-07-05 20:00:00,
2013-07-05 16:01:00,95.2,45.0,30.15,SSE,158,2.7,2.7,18,0.00,,,0.00,VWS V14.01,2013-07-05 20:01:00,
2013-07-05 16:02:00,95.0,44.9,30.15,SSE,158,1.1,1.1,18,0.00,,,0.00,VWS V14.01,2013-07-05 20:02:00,
2013-07-05 16:04:00,95.0,44.9,30.15,SSE,158,1.3,1.3,18,0.00,,,0.00,VWS V14.01,2013-07-05 20:04:00,
2013-07-05 16:05:00,95.0,44.9,30.15,SE,135,1.6,1.6,18,0.00,,,0.00,VWS V14.01,2013-07-05 20:05:00,
2013-07-05 16:06:00,95.0,44.9,30.15,South,180,2.5,2.5,18,0.00,,,0.00,VWS V14.01,2013-07-05 20:06:00,
2013-07-05 16:07:00,94.6,44.6,30.15,South,180,2.5,2.5,18,0.00,,,0.00,VWS V14.01,2013-07-05 20:07:00,
2013-07-05 16:09:00,93.6,43.7,30.15,South,180,3.8,3.8,18,0.00,,,0.00,VWS V14.01,2013-07-05 20:09:00,
2013-07-05 16:10:00,93.6,43.7,30.15,South,180,2.2,2.2,18,0.00,,,0.00,VWS V14.01,2013-07-05 20:10:00,
2013-07-05 16:11:00,93.0,44.7,30.15,South,180,2.5,2.5,19,0.00,,,0.00,VWS V14.01,2013-07-05 20:11:00,
2013-07-05 16:12:00,93.2,43.4,30.15,SW,225,0.0,0.0,18,0.00,,,0.00,VWS V14.01,2013-07-05 20:12:00,
2013-07-05 16:14:00,93.2,43.4,30.15,South,180,0.0,1.1,18,0.00,,,0.00,VWS V14.01,2013-07-05 20:14:00,
2013-07-05 16:15:00,93.6,45.2,30.15,South,180,1.6,1.6,19,0.00,,,0.00,VWS V14.01,2013-07-05 20:15:00,
2013-07-05 16:16:00,93.7,45.3,30.15,WNW,292,1.3,1.6,19,0.00,,,0.00,VWS V14.01,2013-07-05 20:16:00,
2013-07-05 16:18:00,93.9,45.4,30.15,South,180,2.9,2.9,19,0.00,,,0.00,VWS V14.01,2013-07-05 20:18:00,
2013-07-05 16:19:00,93.9,45.4,30.15,SSE,158,2.9,2.9,19,0.00,,,0.00,VWS V14.01,2013-07-05 20:19:00,
2013-07-05 16:21:00,94.3,45.7,30.15,South,180,2.0,2.0,19,0.00,,,0.00,VWS V14.01,2013-07-05 20:21:00,
2013-07-05 16:23:00,94.3,45.7,30.15,East,90,3.1,3.1,19,0.00,,,0.00,VWS V14.01,2013-07-05 20:23:00,
2013-07-05 16:24:00,94.3,45.7,30.15,East,90,2.9,2.9,19,0.00,,,0.00,VWS V14.01,2013-07-05 20:24:00,
2013-07-05 16:25:00,94.3,45.7,30.15,East,90,2.9,2.9,19,0.00,,,0.00,VWS V14.01,2013-07-05 20:25:00,
2013-07-05 16:26:00,94.1,45.6,30.15,SSW,202,2.5,2.9,19,0.00,,,0.00,VWS V14.01,2013-07-05 20:26:00,
2013-07-05 16:27:00,93.7,43.9,30.15,South,180,3.1,3.1,18,0.00,,,0.00,VWS V14.01,2013-07-05 20:27:00,
2013-07-05 16:28:00,93.7,43.9,30.15,East,90,1.3,1.3,18,0.00,,,0.00,VWS V14.01,2013-07-05 20:28:00,
2013-07-05 16:30:00,93.7,45.3,30.15,South,180,2.9,2.9,19,0.00,,,0.00,VWS V14.01,2013-07-05 20:30:00,
2013-07-05 16:31:00,93.7,45.3,30.15,SSW,202,2.7,2.9,19,0.00,,,0.00,VWS V14.01,2013-07-05 20:31:00,
2013-07-05 16:32:00,93.7,45.3,30.15,SW,225,1.3,1.3,19,0.00,,,0.00,VWS V14.01,2013-07-05 20:32:00,
2013-07-05 16:33:00,93.7,45.3,30.15,SW,225,0.0,0.0,19,0.00,,,0.00,VWS V14.01,2013-07-05 20:33:00,
2013-07-05 16:35:00,93.7,45.3,30.15,South,180,0.0,2.0,19,0.00,,,0.00,VWS V14.01,2013-07-05 20:35:00,
2013-07-05 16:36:00,93.7,45.3,30.15,South,180,2.2,2.2,19,0.00,,,0.00,VWS V14.01,2013-07-05 20:36:00,
2013-07-05 16:37:00,94.3,45.7,30.15,South,180,0.9,1.6,19,0.00,,,0.00,VWS V14.01,2013-07-05 20:37:00,
2013-07-05 16:38:00,94.3,45.7,30.15,South,180,1.3,1.3,19,0.00,,,0.00,VWS V14.01,2013-07-05 20:38:00,
2013-07-05 16:40:00,94.1,45.6,30.15,South,180,1.3,1.3,19,0.00,,,0.00,VWS V14.01,2013-07-05 20:40:00,
2013-07-05 16:41:00,94.1,45.6,30.15,SE,135,1.1,1.1,19,0.00,,,0.00,VWS V14.01,2013-07-05 20:41:00,
2013-07-05 16:43:00,93.9,45.4,30.15,South,180,0.0,1.1,19,0.00,,,0.00,VWS V14.01,2013-07-05 20:43:00,
2013-07-05 16:45:00,93.9,45.4,30.12,SE,135,2.0,2.0,19,0.00,,,0.00,VWS V14.01,2013-07-05 20:45:00,
2013-07-05 16:46:00,93.9,45.4,30.12,SSE,158,1.3,2.0,19,0.00,,,0.00,VWS V14.01,2013-07-05 20:46:00,
2013-07-05 16:48:00,93.6,45.2,30.12,South,180,2.5,2.5,19,0.00,,,0.00,VWS V14.01,2013-07-05 20:48:00,
2013-07-05 16:50:00,93.4,45.0,30.12,SW,225,2.2,2.2,19,0.00,,,0.00,VWS V14.01,2013-07-05 20:50:00,
2013-07-05 16:51:00,93.4,45.0,30.12,SSW,202,5.8,5.8,19,0.00,,,0.00,VWS V14.01,2013-07-05 20:51:00,
2013-07-05 16:53:00,93.2,44.9,30.12,ENE,68,2.9,5.8,19,0.00,,,0.00,VWS V14.01,2013-07-05 20:53:00,
2013-07-05 16:55:00,92.7,44.4,30.12,SW,225,2.5,3.1,19,0.00,,,0.00,VWS V14.01,2013-07-05 20:55:00,
2013-07-05 16:56:00,92.7,44.4,30.12,SW,225,2.5,2.5,19,0.00,,,0.00,VWS V14.01,2013-07-05 20:56:00,
2013-07-05 16:58:00,92.5,44.3,30.12,SSW,202,2.9,2.9,19,0.00,,,0.00,VWS V14.01,2013-07-05 20:58:00,
2013-07-05 17:00:00,92.3,44.1,30.12,ENE,68,1.1,1.6,19,0.00,,,0.00,VWS V14.01,2013-07-05 21:00:00,
2013-07-05 17:01:00,92.3,44.1,30.12,ENE,68,1.1,1.1,19,0.00,,,0.00,VWS V14.01,2013-07-05 21:01:00,
2013-07-05 17:03:00,92.3,45.5,30.12,South,180,0.0,0.9,20,0.00,,,0.00,VWS V14.01,2013-07-05 21:03:00,
2013-07-05 17:04:00,92.5,45.6,30.12,East,90,1.6,1.6,20,0.00,,,0.00,VWS V14.01,2013-07-05 21:04:00,
2013-07-05 17:05:00,92.5,45.6,30.12,South,180,1.6,1.6,20,0.00,,,0.00,VWS V14.01,2013-07-05 21:05:00,
2013-07-05 17:06:00,92.5,45.6,30.12,WSW,248,2.7,2.7,20,0.00,,,0.00,VWS V14.01,2013-07-05 21:06:00,
2013-07-05 17:09:00,92.3,45.5,30.12,SW,225,0.9,0.9,20,0.00,,,0.00,VWS V14.01,2013-07-05 21:09:00,
2013-07-05 17:10:00,92.1,45.3,30.12,SW,225,0.0,0.9,20,0.00,,,0.00,VWS V14.01,2013-07-05 21:10:00,
2013-07-05 17:11:00,92.1,45.3,30.12,SW,225,1.1,1.1,20,0.00,,,0.00,VWS V14.01,2013-07-05 21:11:00,
2013-07-05 17:14:00,91.8,45.0,30.12,South,180,2.2,2.7,20,0.00,,,0.00,VWS V14.01,2013-07-05 21:14:00,
2013-07-05 17:15:00,91.6,44.9,30.12,SW,225,1.3,1.3,20,0.00,,,0.00,VWS V14.01,2013-07-05 21:15:00,
2013-07-05 17:16:00,91.6,44.9,30.12,South,180,3.4,3.4,20,0.00,,,0.00,VWS V14.01,2013-07-05 21:16:00,
2013-07-05 17:19:00,91.4,44.7,30.12,South,180,2.2,2.2,20,0.00,,,0.00,VWS V14.01,2013-07-05 21:19:00,
2013-07-05 17:20:00,91.4,44.7,30.12,South,180,3.4,3.4,20,0.00,,,0.00,VWS V14.01,2013-07-05 21:20:00,
2013-07-05 17:21:00,91.4,44.7,30.12,South,180,3.4,3.4,20,0.00,,,0.00,VWS V14.01,2013-07-05 21:21:00,
2013-07-05 17:22:00,91.2,44.6,30.12,SW,225,2.2,2.2,20,0.00,,,0.00,VWS V14.01,2013-07-05 21:22:00,
2013-07-05 17:24:00,91.2,45.9,30.12,South,180,2.0,2.0,21,0.00,,,0.00,VWS V14.01,2013-07-05 21:24:00,
2013-07-05 17:25:00,91.0,45.7,30.12,South,180,2.7,2.7,21,0.00,,,0.00,VWS V14.01,2013-07-05 21:25:00,
2013-07-05 17:26:00,91.0,45.7,30.12,South,180,2.5,2.5,21,0.00,,,0.00,VWS V14.01,2013-07-05 21:26:00,
2013-07-05 17:27:00,91.0,45.7,30.12,South,180,0.0,2.5,21,0.00,,,0.00,VWS V14.01,2013-07-05 21:27:00,
2013-07-05 17:29:00,91.2,45.9,30.12,East,90,0.0,0.0,21,0.00,,,0.00,VWS V14.01,2013-07-05 21:29:00,
2013-07-05 17:30:00,91.2,45.9,30.12,SSW,202,2.9,2.9,21,0.00,,,0.00,VWS V14.01,2013-07-05 21:30:00,
2013-07-05 17:31:00,91.2,45.9,30.12,South,180,1.1,2.9,21,0.00,,,0.00,VWS V14.01,2013-07-05 21:31:00,
2013-07-05 17:32:00,91.2,45.9,30.12,South,180,1.6,1.6,21,0.00,,,0.00,VWS V14.01,2013-07-05 21:32:00,
2013-07-05 17:34:00,91.2,45.9,30.12,South,180,1.3,1.6,21,0.00,,,0.00,VWS V14.01,2013-07-05 21:34:00,
2013-07-05 17:35:00,91.2,45.9,30.12,South,180,1.6,1.6,21,0.00,,,0.00,VWS V14.01,2013-07-05 21:35:00,
2013-07-05 17:36:00,91.0,45.7,30.12,South,180,0.9,1.6,21,0.00,,,0.00,VWS V14.01,2013-07-05 21:36:00,
2013-07-05 17:37:00,91.0,45.7,30.12,South,180,2.9,2.9,21,0.00,,,0.00,VWS V14.01,2013-07-05 21:37:00,
2013-07-05 17:39:00,90.7,45.4,30.12,South,180,1.6,1.6,21,0.00,,,0.00,VWS V14.01,2013-07-05 21:39:00,
2013-07-05 17:40:00,90.7,45.4,30.12,SW,225,5.8,5.8,21,0.00,,,0.00,VWS V14.01,2013-07-05 21:40:00,
2013-07-05 17:42:00,90.5,45.3,30.12,WSW,248,2.5,2.5,21,0.00,,,0.00,VWS V14.01,2013-07-05 21:42:00,
2013-07-05 17:44:00,90.1,46.2,30.12,South,180,0.9,3.4,22,0.00,,,0.00,VWS V14.01,2013-07-05 21:44:00,
2013-07-05 17:46:00,90.1,46.2,30.12,SSW,202,2.5,2.5,22,0.00,,,0.00,VWS V14.01,2013-07-05 21:46:00,
2013-07-05 17:47:00,90.1,45.0,30.12,SW,225,6.3,6.3,21,0.00,,,0.00,VWS V14.01,2013-07-05 21:47:00,
2013-07-05 17:50:00,90.3,46.3,30.12,ENE,68,1.1,1.1,22,0.00,,,0.00,VWS V14.01,2013-07-05 21:50:00,
2013-07-05 17:51:00,90.3,46.3,30.12,SE,135,2.5,2.5,22,0.00,,,0.00,VWS V14.01,2013-07-05 21:51:00,
2013-07-05 17:52:00,90.3,46.3,30.12,ENE,68,3.1,3.1,22,0.00,,,0.00,VWS V14.01,2013-07-05 21:52:00,
2013-07-05 17:53:00,90.3,46.3,30.12,SSW,202,2.9,3.1,22,0.00,,,0.00,VWS V14.01,2013-07-05 21:53:00,
2013-07-05 17:55:00,90.1,46.2,30.12,SSE,158,2.9,3.8,22,0.00,,,0.00,VWS V14.01,2013-07-05 21:55:00,
2013-07-05 17:56:00,90.0,46.1,30.12,SSW,202,2.0,2.0,22,0.00,,,0.00,VWS V14.01,2013-07-05 21:56:00,
2013-07-05 17:57:00,89.8,45.9,30.12,WSW,248,2.0,2.0,22,0.00,,,0.00,VWS V14.01,2013-07-05 21:57:00,
2013-07-05 17:58:00,89.8,45.9,30.12,SW,225,3.6,3.6,22,0.00,,,0.00,VWS V14.01,2013-07-05 21:58:00,
2013-07-05 18:00:00,89.8,45.9,30.12,West,270,2.7,2.7,22,0.00,,,0.00,VWS V14.01,2013-07-05 22:00:00,
2013-07-05 18:01:00,89.8,45.9,30.12,SSW,202,2.5,2.7,22,0.00,,,0.00,VWS V14.01,2013-07-05 22:01:00,
2013-07-05 18:02:00,89.6,45.8,30.12,SW,225,2.5,2.5,22,0.00,,,0.00,VWS V14.01,2013-07-05 22:02:00,
2013-07-05 18:03:00,89.6,45.8,30.12,South,180,3.1,3.1,22,0.00,,,0.00,VWS V14.01,2013-07-05 22:03:00,
2013-07-05 18:05:00,89.4,46.8,30.12,South,180,2.5,2.5,23,0.00,,,0.00,VWS V14.01,2013-07-05 22:05:00,
2013-07-05 18:06:00,89.4,46.8,30.12,South,180,2.5,2.5,23,0.00,,,0.00,VWS V14.01,2013-07-05 22:06:00,
2013-07-05 18:07:00,89.4,46.8,30.12,South,180,1.3,1.3,23,0.00,,,0.00,VWS V14.01,2013-07-05 22:07:00,
2013-07-05 18:08:00,89.4,46.8,30.12,South,180,2.2,2.2,23,0.00,,,0.00,VWS V14.01,2013-07-05 22:08:00,
2013-07-05 18:10:00,89.4,46.8,30.12,SSE,158,2.0,2.0,23,0.00,,,0.00,VWS V14.01,2013-07-05 22:10:00,
2013-07-05 18:11:00,89.4,46.8,30.12,SSE,158,0.0,0.0,23,0.00,,,0.00,VWS V14.01,2013-07-05 22:11:00,
2013-07-05 18:12:00,89.4,46.8,30.12,WSW,248,2.0,2.0,23,0.00,,,0.00,VWS V14.01,2013-07-05 22:12:00,
2013-07-05 18:13:00,89.4,46.8,30.12,WSW,248,2.0,2.0,23,0.00,,,0.00,VWS V14.01,2013-07-05 22:13:00,
2013-07-05 18:15:00,89.2,46.6,30.12,East,90,1.6,5.6,23,0.00,,,0.00,VWS V14.01,2013-07-05 22:15:00,
2013-07-05 18:16:00,89.2,46.6,30.12,SW,225,2.7,2.7,23,0.00,,,0.00,VWS V14.01,2013-07-05 22:16:00,
2013-07-05 18:17:00,89.2,46.6,30.12,South,180,2.7,2.7,23,0.00,,,0.00,VWS V14.01,2013-07-05 22:17:00,
2013-07-05 18:18:00,89.1,46.5,30.12,South,180,2.9,2.9,23,0.00,,,0.00,VWS V14.01,2013-07-05 22:18:00,
2013-07-05 18:20:00,89.1,46.5,30.12,South,180,0.0,0.0,23,0.00,,,0.00,VWS V14.01,2013-07-05 22:20:00,
2013-07-05 18:21:00,89.1,46.5,30.12,West,270,1.1,1.1,23,0.00,,,0.00,VWS V14.01,2013-07-05 22:21:00,
2013-07-05 18:23:00,89.1,46.5,30.12,South,180,4.7,4.7,23,0.00,,,0.00,VWS V14.01,2013-07-05 22:23:00,
2013-07-05 18:25:00,88.9,46.3,30.12,South,180,1.3,1.6,23,0.00,,,0.00,VWS V14.01,2013-07-05 22:25:00,
2013-07-05 18:26:00,88.9,46.3,30.12,SW,225,2.9,2.9,23,0.00,,,0.00,VWS V14.01,2013-07-05 22:26:00,
2013-07-05 18:28:00,88.9,46.3,30.12,South,180,2.7,2.9,23,0.00,,,0.00,VWS V14.01,2013-07-05 22:28:00,
2013-07-05 18:29:00,88.9,46.3,30.12,SW,225,2.5,2.5,23,0.00,,,0.00,VWS V14.01,2013-07-05 22:29:00,
2013-07-05 18:30:00,88.9,46.3,30.12,South,180,3.1,3.1,23,0.00,,,0.00,VWS V14.01,2013-07-05 22:30:00,
2013-07-05 18:31:00,88.9,46.3,30.12,South,180,0.9,0.9,23,0.00,,,0.00,VWS V14.01,2013-07-05 22:31:00,
2013-07-05 18:33:00,88.9,46.3,30.12,South,180,0.0,0.9,23,0.00,,,0.00,VWS V14.01,2013-07-05 22:33:00,
2013-07-05 18:34:00,88.7,47.3,30.12,SSW,202,3.1,3.1,24,0.00,,,0.00,VWS V14.01,2013-07-05 22:34:00,
2013-07-05 18:36:00,88.7,47.3,30.12,South,180,0.9,0.9,24,0.00,,,0.00,VWS V14.01,2013-07-05 22:36:00,
2013-07-05 18:38:00,88.7,47.3,30.12,West,270,1.6,4.3,24,0.00,,,0.00,VWS V14.01,2013-07-05 22:38:00,
2013-07-05 18:39:00,88.7,47.3,30.12,South,180,2.5,4.3,24,0.00,,,0.00,VWS V14.01,2013-07-05 22:39:00,
2013-07-05 18:41:00,88.7,47.3,30.12,SW,225,1.6,3.8,24,0.00,,,0.00,VWS V14.01,2013-07-05 22:41:00,
2013-07-05 18:42:00,88.7,47.3,30.12,SW,225,1.6,3.8,24,0.00,,,0.00,VWS V14.01,2013-07-05 22:42:00,
2013-07-05 18:43:00,88.5,47.2,30.12,SSW,202,0.0,1.3,24,0.00,,,0.00,VWS V14.01,2013-07-05 22:43:00,
2013-07-05 18:44:00,88.5,47.2,30.12,SSW,202,0.0,1.3,24,0.00,,,0.00,VWS V14.01,2013-07-05 22:44:00,
2013-07-05 18:46:00,88.5,47.2,30.12,SSW,202,2.5,2.5,24,0.00,,,0.00,VWS V14.01,2013-07-05 22:46:00,
2013-07-05 18:47:00,88.5,47.2,30.12,South,180,2.5,2.5,24,0.00,,,0.00,VWS V14.01,2013-07-05 22:47:00,
2013-07-05 18:48:00,88.3,48.1,30.12,SSE,158,1.3,2.5,25,0.00,,,0.00,VWS V14.01,2013-07-05 22:48:00,
2013-07-05 18:49:00,88.3,48.1,30.12,SSE,158,1.1,2.5,25,0.00,,,0.00,VWS V14.01,2013-07-05 22:49:00,
2013-07-05 18:51:00,88.3,48.1,30.12,South,180,0.0,0.0,25,0.00,,,0.00,VWS V14.01,2013-07-05 22:51:00,
2013-07-05 18:52:00,88.3,48.1,30.12,North,0,0.9,0.9,25,0.00,,,0.00,VWS V14.01,2013-07-05 22:52:00,
2013-07-05 18:53:00,88.2,46.9,30.12,SSW,202,2.7,2.9,24,0.00,,,0.00,VWS V14.01,2013-07-05 22:53:00,
2013-07-05 18:54:00,88.2,46.9,30.12,SSW,202,2.7,2.9,24,0.00,,,0.00,VWS V14.01,2013-07-05 22:54:00,
2013-07-05 18:56:00,88.2,47.9,30.12,SSW,202,1.3,1.3,25,0.00,,,0.00,VWS V14.01,2013-07-05 22:56:00,
2013-07-05 18:57:00,88.2,46.9,30.12,South,180,2.7,2.7,24,0.00,,,0.00,VWS V14.01,2013-07-05 22:57:00,
2013-07-05 18:59:00,88.0,46.7,30.12,South,180,3.1,3.1,24,0.00,,,0.00,VWS V14.01,2013-07-05 22:59:00,
2013-07-05 19:01:00,87.8,46.5,30.12,SSE,158,2.5,2.5,24,0.00,,,0.00,VWS V14.01,2013-07-05 23:01:00,
2013-07-05 19:02:00,87.8,46.5,30.12,South,180,2.2,2.5,24,0.00,,,0.00,VWS V14.01,2013-07-05 23:02:00,
2013-07-05 19:04:00,87.8,47.6,30.12,South,180,2.5,2.5,25,0.00,,,0.00,VWS V14.01,2013-07-05 23:04:00,
2013-07-05 19:06:00,87.8,47.6,30.12,South,180,0.0,1.3,25,0.00,,,0.00,VWS V14.01,2013-07-05 23:06:00,
2013-07-05 19:08:00,87.8,47.6,30.12,WSW,248,0.9,0.9,25,0.00,,,0.00,VWS V14.01,2013-07-05 23:08:00,
2013-07-05 19:09:00,87.8,47.6,30.12,South,180,0.0,0.9,25,0.00,,,0.00,VWS V14.01,2013-07-05 23:09:00,
2013-07-05 19:11:00,87.6,48.5,30.12,South,180,0.0,1.1,26,0.00,,,0.00,VWS V14.01,2013-07-05 23:11:00,
2013-07-05 19:13:00,87.4,48.4,30.12,WSW,248,2.5,2.5,26,0.00,,,0.00,VWS V14.01,2013-07-05 23:13:00,
2013-07-05 19:14:00,87.4,48.4,30.12,SSE,158,2.5,2.5,26,0.00,,,0.00,VWS V14.01,2013-07-05 23:14:00,
2013-07-05 19:15:00,87.4,48.4,30.12,SSE,158,2.5,2.5,26,0.00,,,0.00,VWS V14.01,2013-07-05 23:15:00,
2013-07-05 19:17:00,87.3,48.2,30.12,South,180,0.9,0.9,26,0.00,,,0.00,VWS V14.01,2013-07-05 23:17:00,
2013-07-05 19:18:00,87.3,48.2,30.12,South,180,1.1,1.1,26,0.00,,,0.00,VWS V14.01,2013-07-05 23:18:00,
2013-07-05 19:19:00,87.3,48.2,30.12,South,180,0.0,1.1,26,0.00,,,0.00,VWS V14.01,2013-07-05 23:19:00,
2013-07-05 19:20:00,87.3,48.2,30.12,South,180,1.6,1.6,26,0.00,,,0.00,VWS V14.01,2013-07-05 23:20:00,
2013-07-05 19:22:00,87.1,48.1,30.12,SSW,202,2.7,2.7,26,0.00,,,0.00,VWS V14.01,2013-07-05 23:22:00,
2013-07-05 19:23:00,87.1,48.1,30.12,SSW,202,2.0,2.0,26,0.00,,,0.00,VWS V14.01,2013-07-05 23:23:00,
2013-07-05 19:24:00,87.1,48.1,30.12,SSW,202,2.0,2.0,26,0.00,,,0.00,VWS V14.01,2013-07-05 23:24:00,
2013-07-05 19:25:00,87.1,48.1,30.12,South,180,1.3,1.3,26,0.00,,,0.00,VWS V14.01,2013-07-05 23:25:00,
2013-07-05 19:27:00,87.1,48.1,30.12,South,180,2.5,2.5,26,0.00,,,0.00,VWS V14.01,2013-07-05 23:27:00,
2013-07-05 19:28:00,87.1,48.1,30.12,South,180,3.6,3.6,26,0.00,,,0.00,VWS V14.01,2013-07-05 23:28:00,
2013-07-05 19:29:00,86.9,47.9,30.12,South,180,0.0,3.6,26,0.00,,,0.00,VWS V14.01,2013-07-05 23:29:00,
2013-07-05 19:30:00,86.9,47.9,30.12,South,180,3.4,3.6,26,0.00,,,0.00,VWS V14.01,2013-07-05 23:30:00,
2013-07-05 19:32:00,86.7,48.8,30.12,South,180,0.0,0.0,27,0.00,,,0.00,VWS V14.01,2013-07-05 23:32:00,
2013-07-05 19:33:00,86.7,48.8,30.12,South,180,1.6,1.6,27,0.00,,,0.00,VWS V14.01,2013-07-05 23:33:00,
2013-07-05 19:34:00,86.7,48.8,30.12,South,180,0.0,1.6,27,0.00,,,0.00,VWS V14.01,2013-07-05 23:34:00,
2013-07-05 19:35:00,86.7,48.8,30.12,South,180,0.0,1.6,27,0.00,,,0.00,VWS V14.01,2013-07-05 23:35:00,
2013-07-05 19:37:00,86.5,49.6,30.12,SSW,202,2.5,2.5,28,0.00,,,0.00,VWS V14.01,2013-07-05 23:37:00,
2013-07-05 19:39:00,86.5,49.6,30.12,South,180,0.0,2.5,28,0.00,,,0.00,VWS V14.01,2013-07-05 23:39:00,
2013-07-05 19:40:00,86.5,49.6,30.12,South,180,0.0,0.0,28,0.00,,,0.00,VWS V14.01,2013-07-05 23:40:00,
2013-07-05 19:42:00,86.4,49.4,30.12,South,180,1.3,1.3,28,0.00,,,0.00,VWS V14.01,2013-07-05 23:42:00,
2013-07-05 19:44:00,86.4,49.4,30.12,South,180,0.9,3.1,28,0.00,,,0.00,VWS V14.01,2013-07-05 23:44:00,
2013-07-05 19:45:00,86.2,49.3,30.12,South,180,0.9,0.9,28,0.00,,,0.00,VWS V14.01,2013-07-05 23:45:00,
2013-07-05 19:47:00,86.2,49.3,30.12,SSW,202,1.3,1.6,28,0.00,,,0.00,VWS V14.01,2013-07-05 23:47:00,
2013-07-05 19:49:00,86.0,49.1,30.12,SSE,158,2.7,2.7,28,0.00,,,0.00,VWS V14.01,2013-07-05 23:49:00,
2013-07-05 19:50:00,86.0,49.1,30.12,SW,225,1.1,2.7,28,0.00,,,0.00,VWS V14.01,2013-07-05 23:50:00,
2013-07-05 19:52:00,85.8,49.9,30.12,ENE,68,1.1,1.1,29,0.00,,,0.00,VWS V14.01,2013-07-05 23:52:00,
2013-07-05 19:54:00,85.8,49.9,30.12,West,270,1.6,1.6,29,0.00,,,0.00,VWS V14.01,2013-07-05 23:54:00,
2013-07-05 19:55:00,85.8,49.9,30.12,SSW,202,1.1,1.6,29,0.00,,,0.00,VWS V14.01,2013-07-05 23:55:00,
2013-07-05 19:58:00,85.5,49.6,30.12,South,180,0.0,2.0,29,0.00,,,0.00,VWS V14.01,2013-07-05 23:58:00,
2013-07-05 19:59:00,85.5,49.6,30.12,South,180,0.0,0.0,29,0.00,,,0.00,VWS V14.01,2013-07-05 23:59:00,
2013-07-05 20:00:00,85.5,49.6,30.12,West,270,2.7,2.7,29,0.00,,,0.00,VWS V14.01,2013-07-06 00:00:00,
2013-07-05 20:03:00,85.3,49.5,30.12,South,180,1.1,4.3,29,0.00,,,0.00,VWS V14.01,2013-07-06 00:03:00,
2013-07-05 20:04:00,85.1,49.3,30.12,SW,225,0.0,0.0,29,0.00,,,0.00,VWS V14.01,2013-07-06 00:04:00,
2013-07-05 20:05:00,85.1,49.3,30.12,SW,225,0.0,1.3,29,0.00,,,0.00,VWS V14.01,2013-07-06 00:05:00,
2013-07-05 20:08:00,84.9,49.2,30.12,SSW,202,1.3,1.3,29,0.00,,,0.00,VWS V14.01,2013-07-06 00:08:00,
2013-07-05 20:09:00,84.9,49.2,30.12,South,180,2.0,2.0,29,0.00,,,0.00,VWS V14.01,2013-07-06 00:09:00,
2013-07-05 20:10:00,84.7,49.0,30.12,South,180,3.4,3.4,29,0.00,,,0.00,VWS V14.01,2013-07-06 00:10:00,
2013-07-05 20:11:00,84.7,49.0,30.12,SW,225,0.0,0.0,29,0.00,,,0.00,VWS V14.01,2013-07-06 00:11:00,
2013-07-05 20:13:00,84.7,49.0,30.12,SSW,202,0.0,0.0,29,0.00,,,0.00,VWS V14.01,2013-07-06 00:13:00,
2013-07-05 20:14:00,84.7,49.0,30.12,SSW,202,2.0,2.0,29,0.00,,,0.00,VWS V14.01,2013-07-06 00:14:00,
2013-07-05 20:15:00,84.6,48.8,30.12,SW,225,0.9,2.0,29,0.00,,,0.00,VWS V14.01,2013-07-06 00:15:00,
2013-07-05 20:16:00,84.6,48.8,30.12,SW,225,0.0,0.9,29,0.00,,,0.00,VWS V14.01,2013-07-06 00:16:00,
2013-07-05 20:18:00,84.6,48.8,30.12,SW,225,0.0,0.0,29,0.00,,,0.00,VWS V14.01,2013-07-06 00:18:00,
2013-07-05 20:20:00,84.2,48.5,30.12,SW,225,0.0,0.0,29,0.00,,,0.00,VWS V14.01,2013-07-06 00:20:00,
2013-07-05 20:22:00,84.2,48.5,30.12,SW,225,0.0,0.0,29,0.00,,,0.00,VWS V14.01,2013-07-06 00:22:00,
2013-07-05 20:23:00,84.2,48.5,30.12,SW,225,0.0,0.0,29,0.00,,,0.00,VWS V14.01,2013-07-06 00:23:00,
2013-07-05 20:25:00,84.2,48.5,30.12,SW,225,0.0,0.0,29,0.00,,,0.00,VWS V14.01,2013-07-06 00:25:00,
2013-07-05 20:26:00,84.0,49.3,30.12,SSW,202,2.0,2.0,30,0.00,,,0.00,VWS V14.01,2013-07-06 00:26:00,
2013-07-05 20:27:00,83.8,49.1,30.12,SSW,202,0.0,0.0,30,0.00,,,0.00,VWS V14.01,2013-07-06 00:27:00,
2013-07-05 20:28:00,83.8,49.1,30.12,SSW,202,0.0,0.0,30,0.00,,,0.00,VWS V14.01,2013-07-06 00:28:00,
2013-07-05 20:30:00,83.8,49.1,30.12,SSW,202,0.0,0.0,30,0.00,,,0.00,VWS V14.01,2013-07-06 00:30:00,
2013-07-05 20:31:00,83.7,49.0,30.12,SSW,202,0.0,0.0,30,0.00,,,0.00,VWS V14.01,2013-07-06 00:31:00,
2013-07-05 20:32:00,83.7,49.0,30.12,SSW,202,0.0,0.0,30,0.00,,,0.00,VWS V14.01,2013-07-06 00:32:00,
2013-07-05 20:33:00,83.7,49.0,30.12,SSW,202,0.0,0.0,30,0.00,,,0.00,VWS V14.01,2013-07-06 00:33:00,
2013-07-05 20:35:00,83.5,48.8,30.12,SSW,202,0.0,0.0,30,0.00,,,0.00,VWS V14.01,2013-07-06 00:35:00,
2013-07-05 20:36:00,83.5,48.8,30.12,SSW,202,0.0,0.0,30,0.00,,,0.00,VWS V14.01,2013-07-06 00:36:00,
2013-07-05 20:37:00,83.5,48.8,30.12,SSW,202,0.0,0.0,30,0.00,,,0.00,VWS V14.01,2013-07-06 00:37:00,
2013-07-05 20:38:00,83.3,48.7,30.12,SSW,202,0.0,0.0,30,0.00,,,0.00,VWS V14.01,2013-07-06 00:38:00,
2013-07-05 20:40:00,83.3,48.7,30.12,SW,225,0.0,0.0,30,0.00,,,0.00,VWS V14.01,2013-07-06 00:40:00,
2013-07-05 20:41:00,83.3,48.7,30.12,SW,225,0.0,0.0,30,0.00,,,0.00,VWS V14.01,2013-07-06 00:41:00,
2013-07-05 20:42:00,83.1,48.5,30.12,SW,225,0.0,0.0,30,0.00,,,0.00,VWS V14.01,2013-07-06 00:42:00,
2013-07-05 20:43:00,83.1,48.5,30.12,SW,225,0.0,0.0,30,0.00,,,0.00,VWS V14.01,2013-07-06 00:43:00,
2013-07-05 20:45:00,83.1,49.4,30.12,SW,225,0.0,0.0,31,0.00,,,0.00,VWS V14.01,2013-07-06 00:45:00,
2013-07-05 20:46:00,83.1,49.4,30.12,SW,225,0.0,0.0,31,0.00,,,0.00,VWS V14.01,2013-07-06 00:46:00,
2013-07-05 20:47:00,82.9,49.2,30.12,SW,225,0.0,0.0,31,0.00,,,0.00,VWS V14.01,2013-07-06 00:47:00,
2013-07-05 20:48:00,82.9,49.2,30.12,SW,225,0.0,0.0,31,0.00,,,0.00,VWS V14.01,2013-07-06 00:48:00,
2013-07-05 20:50:00,82.8,49.1,30.12,SW,225,0.0,0.0,31,0.00,,,0.00,VWS V14.01,2013-07-06 00:50:00,
2013-07-05 20:51:00,82.8,49.1,30.12,SW,225,0.0,0.0,31,0.00,,,0.00,VWS V14.01,2013-07-06 00:51:00,
2013-07-05 20:53:00,82.8,49.1,30.12,SW,225,0.0,0.0,31,0.00,,,0.00,VWS V14.01,2013-07-06 00:53:00,
2013-07-05 20:55:00,82.4,48.8,30.12,SW,225,0.0,0.0,31,0.00,,,0.00,VWS V14.01,2013-07-06 00:55:00,
2013-07-05 20:56:00,82.4,48.8,30.12,SW,225,0.0,0.0,31,0.00,,,0.00,VWS V14.01,2013-07-06 00:56:00,
2013-07-05 20:57:00,82.4,48.8,30.12,SW,225,0.0,0.0,31,0.00,,,0.00,VWS V14.01,2013-07-06 00:57:00,
2013-07-05 20:58:00,82.4,48.8,30.12,SW,225,0.0,0.0,31,0.00,,,0.00,VWS V14.01,2013-07-06 00:58:00,
2013-07-05 21:00:00,82.4,48.8,30.12,SW,225,0.0,0.0,31,0.00,,,0.00,VWS V14.01,2013-07-06 01:00:00,
2013-07-05 21:01:00,82.4,48.8,30.12,SW,225,0.0,0.0,31,0.00,,,0.00,VWS V14.01,2013-07-06 01:01:00,
2013-07-05 21:02:00,82.4,48.8,30.12,SW,225,0.0,0.0,31,0.00,,,0.00,VWS V14.01,2013-07-06 01:02:00,
2013-07-05 21:03:00,82.2,49.5,30.12,SW,225,0.0,0.0,32,0.00,,,0.00,VWS V14.01,2013-07-06 01:03:00,
2013-07-05 21:05:00,82.2,49.5,30.12,South,180,0.0,0.0,32,0.00,,,0.00,VWS V14.01,2013-07-06 01:05:00,
2013-07-05 21:06:00,82.2,49.5,30.12,South,180,0.0,0.0,32,0.00,,,0.00,VWS V14.01,2013-07-06 01:06:00,
2013-07-05 21:07:00,82.2,49.5,30.12,SW,225,0.0,0.0,32,0.00,,,0.00,VWS V14.01,2013-07-06 01:07:00,
2013-07-05 21:08:00,82.0,49.3,30.12,SSW,202,1.1,1.1,32,0.00,,,0.00,VWS V14.01,2013-07-06 01:08:00,
2013-07-05 21:11:00,82.0,49.3,30.12,SSW,202,0.0,0.0,32,0.00,,,0.00,VWS V14.01,2013-07-06 01:11:00,
2013-07-05 21:12:00,82.0,49.3,30.12,SSW,202,0.0,0.0,32,0.00,,,0.00,VWS V14.01,2013-07-06 01:12:00,
2013-07-05 21:13:00,82.0,49.3,30.12,SSW,202,0.0,0.0,32,0.00,,,0.00,VWS V14.01,2013-07-06 01:13:00,
2013-07-05 21:16:00,82.0,50.1,30.15,SSE,158,2.7,2.7,33,0.00,,,0.00,VWS V14.01,2013-07-06 01:16:00,
2013-07-05 21:17:00,82.0,50.1,30.15,South,180,1.3,1.3,33,0.00,,,0.00,VWS V14.01,2013-07-06 01:17:00,
2013-07-05 21:18:00,81.9,50.0,30.15,South,180,0.0,0.0,33,0.00,,,0.00,VWS V14.01,2013-07-06 01:18:00,
2013-07-05 21:21:00,81.9,50.0,30.15,South,180,0.0,0.0,33,0.00,,,0.00,VWS V14.01,2013-07-06 01:21:00,
2013-07-05 21:22:00,81.9,50.0,30.15,South,180,0.0,0.0,33,0.00,,,0.00,VWS V14.01,2013-07-06 01:22:00,
2013-07-05 21:24:00,81.9,50.0,30.15,South,180,0.0,0.0,33,0.00,,,0.00,VWS V14.01,2013-07-06 01:24:00,
2013-07-05 21:26:00,81.9,50.0,30.15,South,180,0.0,0.0,33,0.00,,,0.00,VWS V14.01,2013-07-06 01:26:00,
2013-07-05 21:27:00,81.9,50.8,30.15,South,180,0.0,0.0,34,0.00,,,0.00,VWS V14.01,2013-07-06 01:27:00,
2013-07-05 21:29:00,81.7,50.6,30.15,WNW,292,0.0,0.0,34,0.00,,,0.00,VWS V14.01,2013-07-06 01:29:00,
2013-07-05 21:31:00,81.7,50.6,30.15,South,180,0.0,0.0,34,0.00,,,0.00,VWS V14.01,2013-07-06 01:31:00,
2013-07-05 21:32:00,81.7,50.6,30.15,SW,225,1.1,1.1,34,0.00,,,0.00,VWS V14.01,2013-07-06 01:32:00,
2013-07-05 21:34:00,81.7,50.6,30.15,West,270,1.6,2.5,34,0.00,,,0.00,VWS V14.01,2013-07-06 01:34:00,
2013-07-05 21:35:00,81.7,50.6,30.15,SSW,202,1.3,1.6,34,0.00,,,0.00,VWS V14.01,2013-07-06 01:35:00,
2013-07-05 21:36:00,81.5,51.2,30.15,South,180,2.0,2.0,35,0.00,,,0.00,VWS V14.01,2013-07-06 01:36:00,
2013-07-05 21:37:00,81.5,51.2,30.15,WSW,248,3.6,3.6,35,0.00,,,0.00,VWS V14.01,2013-07-06 01:37:00,
2013-07-05 21:38:00,81.5,51.2,30.15,WSW,248,3.6,3.6,35,0.00,,,0.00,VWS V14.01,2013-07-06 01:38:00,
2013-07-05 21:39:00,81.5,51.2,30.15,South,180,1.6,1.6,35,0.00,,,0.00,VWS V14.01,2013-07-06 01:39:00,
2013-07-05 21:40:00,81.5,52.0,30.15,South,180,2.5,2.5,36,0.00,,,0.00,VWS V14.01,2013-07-06 01:40:00,
2013-07-05 21:41:00,81.5,52.0,30.15,SW,225,1.3,2.0,36,0.00,,,0.00,VWS V14.01,2013-07-06 01:41:00,
2013-07-05 21:42:00,81.5,52.0,30.15,SSW,202,0.0,1.3,36,0.00,,,0.00,VWS V14.01,2013-07-06 01:42:00,
2013-07-05 21:43:00,81.5,52.0,30.15,SSW,202,0.0,0.0,36,0.00,,,0.00,VWS V14.01,2013-07-06 01:43:00,
2013-07-05 21:44:00,81.5,52.0,30.15,SSE,158,3.1,3.1,36,0.00,,,0.00,VWS V14.01,2013-07-06 01:44:00,
2013-07-05 21:45:00,81.5,52.0,30.15,SSE,158,3.1,3.1,36,0.00,,,0.00,VWS V14.01,2013-07-06 01:45:00,
2013-07-05 21:47:00,81.3,51.8,30.15,South,180,0.0,0.0,36,0.00,,,0.00,VWS V14.01,2013-07-06 01:47:00,
2013-07-05 21:48:00,81.3,51.8,30.15,SSW,202,2.0,2.0,36,0.00,,,0.00,VWS V14.01,2013-07-06 01:48:00,
2013-07-05 21:49:00,81.3,51.8,30.15,SSW,202,1.1,2.0,36,0.00,,,0.00,VWS V14.01,2013-07-06 01:49:00,
2013-07-05 21:50:00,81.3,51.8,30.15,SSW,202,0.0,2.0,36,0.00,,,0.00,VWS V14.01,2013-07-06 01:50:00,
2013-07-05 21:52:00,81.3,52.6,30.15,SSW,202,2.0,2.0,37,0.00,,,0.00,VWS V14.01,2013-07-06 01:52:00,
2013-07-05 21:53:00,81.3,52.6,30.15,South,180,1.1,1.1,37,0.00,,,0.00,VWS V14.01,2013-07-06 01:53:00,
2013-07-05 21:54:00,81.1,52.4,30.15,SSW,202,2.9,2.9,37,0.00,,,0.00,VWS V14.01,2013-07-06 01:54:00,
2013-07-05 21:55:00,81.1,52.4,30.15,SSW,202,2.5,2.5,37,0.00,,,0.00,VWS V14.01,2013-07-06 01:55:00,
2013-07-05 21:57:00,81.1,53.2,30.15,NNE,22,1.6,2.2,38,0.00,,,0.00,VWS V14.01,2013-07-06 01:57:00,
2013-07-05 21:58:00,81.0,53.0,30.15,South,180,2.0,2.0,38,0.00,,,0.00,VWS V14.01,2013-07-06 01:58:00,
2013-07-05 21:59:00,81.0,53.0,30.15,South,180,2.5,2.5,38,0.00,,,0.00,VWS V14.01,2013-07-06 01:59:00,
2013-07-05 22:00:00,81.0,53.0,30.15,South,180,2.5,2.5,38,0.00,,,0.00,VWS V14.01,2013-07-06 02:00:00,
2013-07-05 22:02:00,81.0,53.0,30.15,SSW,202,1.1,2.0,38,0.00,,,0.00,VWS V14.01,2013-07-06 02:02:00,
2013-07-05 22:03:00,81.0,53.0,30.15,SSE,158,1.1,2.0,38,0.00,,,0.00,VWS V14.01,2013-07-06 02:03:00,
2013-07-05 22:04:00,81.0,53.0,30.15,South,180,2.7,2.7,38,0.00,,,0.00,VWS V14.01,2013-07-06 02:04:00,
2013-07-05 22:05:00,80.8,53.5,30.15,South,180,0.9,2.7,39,0.00,,,0.00,VWS V14.01,2013-07-06 02:05:00,
2013-07-05 22:07:00,80.8,53.5,30.15,SW,225,2.0,2.0,39,0.00,,,0.00,VWS V14.01,2013-07-06 02:07:00,
2013-07-05 22:09:00,80.8,53.5,30.15,SW,225,1.1,1.1,39,0.00,,,0.00,VWS V14.01,2013-07-06 02:09:00,
2013-07-05 22:10:00,80.6,53.4,30.15,WSW,248,2.5,3.6,39,0.00,,,0.00,VWS V14.01,2013-07-06 02:10:00,
2013-07-05 22:12:00,80.6,53.4,30.15,South,180,1.6,1.6,39,0.00,,,0.00,VWS V14.01,2013-07-06 02:12:00,
2013-07-05 22:14:00,80.4,53.9,30.15,SW,225,0.0,1.6,40,0.00,,,0.00,VWS V14.01,2013-07-06 02:14:00,
2013-07-05 22:15:00,80.4,53.9,30.15,South,180,0.0,0.0,40,0.00,,,0.00,VWS V14.01,2013-07-06 02:15:00,
2013-07-05 22:17:00,80.4,53.9,30.15,South,180,0.0,0.0,40,0.00,,,0.00,VWS V14.01,2013-07-06 02:17:00,
2013-07-05 22:19:00,80.4,53.9,30.15,SW,225,1.3,1.3,40,0.00,,,0.00,VWS V14.01,2013-07-06 02:19:00,
2013-07-05 22:20:00,80.4,53.9,30.15,South,180,0.9,0.9,40,0.00,,,0.00,VWS V14.01,2013-07-06 02:20:00,
2013-07-05 22:22:00,80.2,53.8,30.15,SSW,202,2.7,2.7,40,0.00,,,0.00,VWS V14.01,2013-07-06 02:22:00,
2013-07-05 22:24:00,80.2,53.8,30.15,SSW,202,0.0,1.3,40,0.00,,,0.00,VWS V14.01,2013-07-06 02:24:00,
2013-07-05 22:25:00,80.2,53.8,30.15,SSW,202,0.0,1.3,40,0.00,,,0.00,VWS V14.01,2013-07-06 02:25:00,
2013-07-05 22:27:00,80.1,53.6,30.15,SSW,202,0.0,0.0,40,0.00,,,0.00,VWS V14.01,2013-07-06 02:27:00,
2013-07-05 22:29:00,80.1,53.6,30.15,South,180,0.0,0.0,40,0.00,,,0.00,VWS V14.01,2013-07-06 02:29:00,
2013-07-05 22:30:00,80.1,53.6,30.15,South,180,0.0,0.0,40,0.00,,,0.00,VWS V14.01,2013-07-06 02:30:00,
2013-07-05 22:33:00,79.9,53.4,30.15,SE,135,0.0,0.0,40,0.00,,,0.00,VWS V14.01,2013-07-06 02:33:00,
2013-07-05 22:35:00,79.9,53.4,30.15,South,180,0.0,0.0,40,0.00,,,0.00,VWS V14.01,2013-07-06 02:35:00,
2013-07-05 22:38:00,79.7,53.3,30.15,SSW,202,1.1,1.1,40,0.00,,,0.00,VWS V14.01,2013-07-06 02:38:00,
2013-07-05 22:40:00,79.7,53.3,30.15,SSW,202,0.0,1.1,40,0.00,,,0.00,VWS V14.01,2013-07-06 02:40:00,
2013-07-05 22:41:00,79.7,53.3,30.15,SSW,202,0.0,0.0,40,0.00,,,0.00,VWS V14.01,2013-07-06 02:41:00,
2013-07-05 22:43:00,79.5,53.8,30.15,SSW,202,1.6,2.0,41,0.00,,,0.00,VWS V14.01,2013-07-06 02:43:00,
2013-07-05 22:45:00,79.5,53.8,30.15,South,180,1.1,1.6,41,0.00,,,0.00,VWS V14.01,2013-07-06 02:45:00,
2013-07-05 22:46:00,79.5,53.8,30.15,South,180,1.6,1.6,41,0.00,,,0.00,VWS V14.01,2013-07-06 02:46:00,
2013-07-05 22:48:00,79.5,53.8,30.15,SSW,202,1.6,1.6,41,0.00,,,0.00,VWS V14.01,2013-07-06 02:48:00,
2013-07-05 22:50:00,79.5,53.8,30.15,SSW,202,0.0,0.0,41,0.00,,,0.00,VWS V14.01,2013-07-06 02:50:00,
2013-07-05 22:51:00,79.3,53.6,30.15,SSW,202,0.0,0.0,41,0.00,,,0.00,VWS V14.01,2013-07-06 02:51:00,
2013-07-05 22:54:00,79.2,53.5,30.15,SSW,202,1.6,1.6,41,0.00,,,0.00,VWS V14.01,2013-07-06 02:54:00,
2013-07-05 22:55:00,79.2,53.5,30.15,NW,315,0.9,1.6,41,0.00,,,0.00,VWS V14.01,2013-07-06 02:55:00,
2013-07-05 22:56:00,79.2,53.5,30.15,South,180,0.0,0.0,41,0.00,,,0.00,VWS V14.01,2013-07-06 02:56:00,
2013-07-05 22:59:00,79.0,53.3,30.15,SW,225,0.0,1.1,41,0.00,,,0.00,VWS V14.01,2013-07-06 02:59:00,
2013-07-05 23:00:00,79.0,53.3,30.15,SW,225,0.0,1.1,41,0.00,,,0.00,VWS V14.01,2013-07-06 03:00:00,
2013-07-05 23:01:00,79.0,53.3,30.15,South,180,2.7,2.7,41,0.00,,,0.00,VWS V14.01,2013-07-06 03:01:00,
2013-07-05 23:04:00,79.0,53.3,30.15,South,180,0.0,0.0,41,0.00,,,0.00,VWS V14.01,2013-07-06 03:04:00,
2013-07-05 23:05:00,79.0,53.3,30.15,South,180,1.3,1.3,41,0.00,,,0.00,VWS V14.01,2013-07-06 03:05:00,
2013-07-05 23:06:00,79.0,53.3,30.15,South,180,1.3,1.3,41,0.00,,,0.00,VWS V14.01,2013-07-06 03:06:00,
2013-07-05 23:09:00,78.8,53.8,30.15,South,180,0.0,1.1,42,0.00,,,0.00,VWS V14.01,2013-07-06 03:09:00,
2013-07-05 23:10:00,78.8,53.8,30.15,SSW,202,1.6,1.6,42,0.00,,,0.00,VWS V14.01,2013-07-06 03:10:00,
2013-07-05 23:11:00,78.8,53.8,30.15,SSW,202,0.0,1.6,42,0.00,,,0.00,VWS V14.01,2013-07-06 03:11:00,
2013-07-05 23:14:00,78.6,53.6,30.15,SSW,202,0.0,0.0,42,0.00,,,0.00,VWS V14.01,2013-07-06 03:14:00,
2013-07-05 23:15:00,78.6,53.6,30.15,SW,225,0.0,2.0,42,0.00,,,0.00,VWS V14.01,2013-07-06 03:15:00,
2013-07-05 23:16:00,78.6,53.6,30.15,SW,225,0.0,2.0,42,0.00,,,0.00,VWS V14.01,2013-07-06 03:16:00,
2013-07-05 23:19:00,78.6,54.3,30.15,WNW,292,0.9,0.9,43,0.00,,,0.00,VWS V14.01,2013-07-06 03:19:00,
2013-07-05 23:20:00,78.6,54.3,30.15,SSW,202,0.0,0.9,43,0.00,,,0.00,VWS V14.01,2013-07-06 03:20:00,
2013-07-05 23:21:00,78.6,54.3,30.15,SSW,202,0.0,0.0,43,0.00,,,0.00,VWS V14.01,2013-07-06 03:21:00,
2013-07-05 23:22:00,78.6,54.3,30.15,SSW,202,0.0,0.0,43,0.00,,,0.00,VWS V14.01,2013-07-06 03:22:00,
2013-07-05 23:25:00,78.4,54.1,30.15,SW,225,0.0,0.9,43,0.00,,,0.00,VWS V14.01,2013-07-06 03:25:00,
2013-07-05 23:26:00,78.4,54.1,30.15,SSW,202,0.0,0.0,43,0.00,,,0.00,VWS V14.01,2013-07-06 03:26:00,
2013-07-05 23:27:00,78.4,54.1,30.15,SSW,202,2.9,2.9,43,0.00,,,0.00,VWS V14.01,2013-07-06 03:27:00,
2013-07-05 23:30:00,78.4,54.1,30.15,SSW,202,0.0,0.9,43,0.00,,,0.00,VWS V14.01,2013-07-06 03:30:00,
2013-07-05 23:31:00,78.4,54.1,30.15,SSW,202,0.0,0.0,43,0.00,,,0.00,VWS V14.01,2013-07-06 03:31:00,
2013-07-05 23:32:00,78.4,54.1,30.15,SSW,202,0.0,0.0,43,0.00,,,0.00,VWS V14.01,2013-07-06 03:32:00,
2013-07-05 23:35:00,78.3,54.0,30.15,SSW,202,1.6,1.6,43,0.00,,,0.00,VWS V14.01,2013-07-06 03:35:00,
2013-07-05 23:36:00,78.3,54.0,30.15,SSW,202,0.0,1.6,43,0.00,,,0.00,VWS V14.01,2013-07-06 03:36:00,
2013-07-05 23:37:00,78.3,54.0,30.15,WSW,248,2.7,2.7,43,0.00,,,0.00,VWS V14.01,2013-07-06 03:37:00,
2013-07-05 23:40:00,78.3,54.6,30.15,South,180,0.0,2.2,44,0.00,,,0.00,VWS V14.01,2013-07-06 03:40:00,
2013-07-05 23:41:00,78.3,54.6,30.15,South,180,0.0,0.0,44,0.00,,,0.00,VWS V14.01,2013-07-06 03:41:00,
2013-07-05 23:42:00,78.3,54.6,30.15,South,180,0.0,0.0,44,0.00,,,0.00,VWS V14.01,2013-07-06 03:42:00,
2013-07-05 23:45:00,78.3,54.6,30.15,ENE,68,0.0,1.3,44,0.00,,,0.00,VWS V14.01,2013-07-06 03:45:00,
2013-07-05 23:46:00,78.3,54.6,30.15,South,180,0.0,0.0,44,0.00,,,0.00,VWS V14.01,2013-07-06 03:46:00,
2013-07-05 23:47:00,78.1,54.4,30.15,SSW,202,0.9,0.9,44,0.00,,,0.00,VWS V14.01,2013-07-06 03:47:00,
2013-07-05 23:50:00,78.1,54.4,30.15,SSW,202,0.0,0.0,44,0.00,,,0.00,VWS V14.01,2013-07-06 03:50:00,
2013-07-05 23:51:00,78.1,54.4,30.15,SSW,202,0.0,0.0,44,0.00,,,0.00,VWS V14.01,2013-07-06 03:51:00,
2013-07-05 23:52:00,78.1,54.4,30.15,SSW,202,0.0,0.0,44,0.00,,,0.00,VWS V14.01,2013-07-06 03:52:00,
2013-07-05 23:55:00,78.1,54.4,30.15,SSW,202,1.3,1.3,44,0.00,,,0.00,VWS V14.01,2013-07-06 03:55:00,
2013-07-05 23:56:00,77.9,54.9,30.15,SSW,202,1.1,1.3,45,0.00,,,0.00,VWS V14.01,2013-07-06 03:56:00,
2013-07-05 23:57:00,77.9,54.9,30.15,SW,225,1.1,1.1,45,0.00,,,0.00,VWS V14.01,2013-07-06 03:57:00,
2013-07-05 23:58:00,77.9,54.3,30.15,SW,225,2.2,2.2,44,0.00,,,0.00,VWS V14.01,2013-07-06 03:58:00,